PWSweather.com
Personal Weather Stations
Station Observations
KOHREFORM1
Reform, Ohio, Newark, OH 43055

Reform, OhioNewark, OH 43055

Lat: 40.1502, Lon: -82.2417

Elevation: 1043

Station Type: Davis Vantage Pro 2 Plus

Latest ConditionsUpdated 8:36:26 PM EDT Monday, Oct 15, 2018
Currently Today's Max Today's Min Today's Average
Temperature 47.0°F8.3°C 59.7°F15.4°C 47.0°F8.3°C 54.6°F12.6°C
Dew Point 42.4°F5.8°C 47.7°F8.7°C 22.1°F-5.5°C 29.4°F-1.4°C
Winds 1.0 mph NW1.6 kmh NW 7.0 mph -11.3 kmh - - 1.2 mph 1.9 kmh
Wind Gusts 4.0 mph6.4 kmh 13.0 mph20.9 kmh - -
Humidity 84% 91% 38% 47%
Pressure 30.16 in1021.3 mb 30.16 in1021.3 mb 29.92 in1013.2 mb -
Precipitation - 0.04 in1.0 mm - -
Hour Temp Dew Point Humidity Winds Wind Gusts Pressure Precip Precip Rate Daily Precip Total
08:36 PM 47.0°F8.3°C 42.4°F5.8°C 84% 1.0 mph NW1.6 kmh NW 4.0 mph6.4 kmh 30.16 in1021.3 mb 0.00 in0.0 mm 0.00 in0.0 mm 0.04 in1.0 mm
08:34 PM 47.0°F8.3°C 42.4°F5.8°C 84% 2.0 mph E3.2 kmh E 4.0 mph6.4 kmh 30.16 in1021.3 mb 0.00 in0.0 mm 0.00 in0.0 mm 0.04 in1.0 mm
08:32 PM 47.1°F8.4°C 42.8°F6.0°C 85% 2.0 mph NW3.2 kmh NW 4.0 mph6.4 kmh 30.16 in1021.3 mb 0.00 in0.0 mm 0.00 in0.0 mm 0.04 in1.0 mm
08:30 PM 47.1°F8.4°C 43.4°F6.3°C 87% 2.0 mph NW3.2 kmh NW 4.0 mph6.4 kmh 30.16 in1021.3 mb 0.00 in0.0 mm 0.00 in0.0 mm 0.04 in1.0 mm
08:28 PM 47.2°F8.4°C 43.8°F6.6°C 88% 1.0 mph NNE1.6 kmh NNE 4.0 mph6.4 kmh 30.16 in1021.3 mb 0.00 in0.0 mm 0.00 in0.0 mm 0.04 in1.0 mm
08:26 PM 47.3°F8.5°C 41.1°F5.1°C 79% 3.0 mph NW4.8 kmh NW 4.0 mph6.4 kmh 30.15 in1021.0 mb 0.00 in0.0 mm 0.00 in0.0 mm 0.04 in1.0 mm
08:24 PM 47.5°F8.6°C 41.0°F5.0°C 78% 3.0 mph ENE4.8 kmh ENE 4.0 mph6.4 kmh 30.16 in1021.3 mb 0.00 in0.0 mm 0.00 in0.0 mm 0.04 in1.0 mm
08:22 PM 47.6°F8.7°C 40.4°F4.7°C 76% Calm Calm -- 30.16 in1021.3 mb 0.00 in0.0 mm 0.00 in0.0 mm 0.04 in1.0 mm
08:20 PM 47.6°F8.7°C 40.1°F4.5°C 75% Calm Calm 5.0 mph8.0 kmh 30.15 in1021.0 mb 0.00 in0.0 mm 0.00 in0.0 mm 0.04 in1.0 mm
08:18 PM 47.6°F8.7°C 40.4°F4.7°C 76% 1.0 mph W1.6 kmh W 5.0 mph8.0 kmh 30.16 in1021.3 mb 0.00 in0.0 mm 0.00 in0.0 mm 0.04 in1.0 mm
08:16 PM 47.7°F8.7°C 40.5°F4.7°C 76% 1.0 mph W1.6 kmh W 5.0 mph8.0 kmh 30.15 in1021.0 mb 0.00 in0.0 mm 0.00 in0.0 mm 0.04 in1.0 mm
08:14 PM 47.7°F8.7°C 41.5°F5.3°C 79% 2.0 mph W3.2 kmh W 5.0 mph8.0 kmh 30.15 in1021.0 mb 0.00 in0.0 mm 0.00 in0.0 mm 0.04 in1.0 mm
08:12 PM 47.8°F8.8°C 41.9°F5.5°C 80% 1.0 mph N1.6 kmh N 5.0 mph8.0 kmh 30.15 in1021.0 mb 0.00 in0.0 mm 0.00 in0.0 mm 0.04 in1.0 mm
08:10 PM 47.8°F8.8°C 41.3°F5.2°C 78% Calm Calm 5.0 mph8.0 kmh 30.14 in1020.7 mb 0.00 in0.0 mm 0.00 in0.0 mm 0.04 in1.0 mm
08:08 PM 47.8°F8.8°C 41.6°F5.3°C 79% Calm Calm 5.0 mph8.0 kmh 30.14 in1020.7 mb 0.00 in0.0 mm 0.00 in0.0 mm 0.04 in1.0 mm
08:06 PM 47.9°F8.8°C 41.4°F5.2°C 78% 2.0 mph N3.2 kmh N 5.0 mph8.0 kmh 30.14 in1020.7 mb 0.00 in0.0 mm 0.00 in0.0 mm 0.04 in1.0 mm
08:04 PM 47.8°F8.8°C 42.9°F6.1°C 83% Calm Calm 5.0 mph8.0 kmh 30.14 in1020.7 mb 0.00 in0.0 mm 0.00 in0.0 mm 0.04 in1.0 mm
08:02 PM 47.9°F8.8°C 43.0°F6.1°C 83% 2.0 mph NW3.2 kmh NW 5.0 mph8.0 kmh 30.14 in1020.7 mb 0.00 in0.0 mm 0.00 in0.0 mm 0.04 in1.0 mm
08:00 PM 47.9°F8.8°C 42.7°F5.9°C 82% 1.0 mph NW1.6 kmh NW 6.0 mph9.7 kmh 30.14 in1020.7 mb 0.00 in0.0 mm 0.00 in0.0 mm 0.04 in1.0 mm
07:58 PM 48.0°F8.9°C 43.1°F6.2°C 83% 1.0 mph NNW1.6 kmh NNW 6.0 mph9.7 kmh 30.14 in1020.7 mb 0.00 in0.0 mm 0.00 in0.0 mm 0.04 in1.0 mm
07:56 PM 48.0°F8.9°C 43.1°F6.2°C 83% 2.0 mph NNW3.2 kmh NNW 6.0 mph9.7 kmh 30.14 in1020.7 mb 0.00 in0.0 mm 0.00 in0.0 mm 0.04 in1.0 mm
07:54 PM 48.1°F8.9°C 42.9°F6.1°C 82% Calm Calm 6.0 mph9.7 kmh 30.14 in1020.7 mb 0.00 in0.0 mm 0.00 in0.0 mm 0.04 in1.0 mm
07:52 PM 48.1°F8.9°C 43.5°F6.4°C 84% 2.0 mph NW3.2 kmh NW 6.0 mph9.7 kmh 30.13 in1020.3 mb 0.00 in0.0 mm 0.00 in0.0 mm 0.04 in1.0 mm
07:50 PM 48.2°F9.0°C 43.6°F6.4°C 84% 2.0 mph WSW3.2 kmh WSW 6.0 mph9.7 kmh 30.13 in1020.3 mb 0.00 in0.0 mm 0.00 in0.0 mm 0.04 in1.0 mm
07:48 PM 48.2°F9.0°C 43.9°F6.6°C 85% 2.0 mph NNE3.2 kmh NNE 6.0 mph9.7 kmh 30.14 in1020.7 mb 0.00 in0.0 mm 0.00 in0.0 mm 0.04 in1.0 mm
07:46 PM 48.2°F9.0°C 44.2°F6.8°C 86% 1.0 mph NE1.6 kmh NE 6.0 mph9.7 kmh 30.13 in1020.3 mb 0.00 in0.0 mm 0.00 in0.0 mm 0.04 in1.0 mm
07:44 PM 48.3°F9.1°C 44.3°F6.8°C 86% 3.0 mph NNE4.8 kmh NNE 6.0 mph9.7 kmh 30.13 in1020.3 mb 0.00 in0.0 mm 0.00 in0.0 mm 0.04 in1.0 mm
07:42 PM 48.4°F9.1°C 44.4°F6.9°C 86% 2.0 mph NW3.2 kmh NW 6.0 mph9.7 kmh 30.12 in1020.0 mb 0.00 in0.0 mm 0.00 in0.0 mm 0.04 in1.0 mm
07:40 PM 48.5°F9.2°C 44.2°F6.8°C 85% 2.0 mph N3.2 kmh N 5.0 mph8.0 kmh 30.12 in1020.0 mb 0.00 in0.0 mm 0.00 in0.0 mm 0.04 in1.0 mm
07:38 PM 48.5°F9.2°C 44.8°F7.1°C 87% 1.0 mph SW1.6 kmh SW 4.0 mph6.4 kmh 30.13 in1020.3 mb 0.00 in0.0 mm 0.00 in0.0 mm 0.04 in1.0 mm
07:36 PM 48.6°F9.2°C 44.6°F7.0°C 86% 2.0 mph N3.2 kmh N 4.0 mph6.4 kmh 30.12 in1020.0 mb 0.00 in0.0 mm 0.00 in0.0 mm 0.04 in1.0 mm
07:34 PM 48.6°F9.2°C 44.3°F6.8°C 85% 1.0 mph NNW1.6 kmh NNW 4.0 mph6.4 kmh 30.12 in1020.0 mb 0.00 in0.0 mm 0.00 in0.0 mm 0.04 in1.0 mm
07:32 PM 48.6°F9.2°C 45.5°F7.5°C 89% 1.0 mph NNW1.6 kmh NNW 4.0 mph6.4 kmh 30.11 in1019.6 mb 0.00 in0.0 mm 0.00 in0.0 mm 0.04 in1.0 mm
07:30 PM 48.7°F9.3°C 44.4°F6.9°C 85% 2.0 mph NW3.2 kmh NW 4.0 mph6.4 kmh 30.12 in1020.0 mb 0.00 in0.0 mm 0.00 in0.0 mm 0.04 in1.0 mm
07:28 PM 48.8°F9.3°C 44.5°F6.9°C 85% 2.0 mph NNW3.2 kmh NNW 4.0 mph6.4 kmh 30.12 in1020.0 mb 0.00 in0.0 mm 0.00 in0.0 mm 0.04 in1.0 mm
07:26 PM 48.8°F9.3°C 45.1°F7.3°C 87% 2.0 mph NNW3.2 kmh NNW 4.0 mph6.4 kmh 30.11 in1019.6 mb 0.00 in0.0 mm 0.00 in0.0 mm 0.04 in1.0 mm
07:24 PM 48.8°F9.3°C 44.5°F6.9°C 85% 1.0 mph NW1.6 kmh NW 4.0 mph6.4 kmh 30.12 in1020.0 mb 0.00 in0.0 mm 0.00 in0.0 mm 0.04 in1.0 mm
07:22 PM 48.9°F9.4°C 44.9°F7.2°C 86% 1.0 mph NW1.6 kmh NW 3.0 mph4.8 kmh 30.12 in1020.0 mb 0.00 in0.0 mm 0.00 in0.0 mm 0.04 in1.0 mm
07:20 PM 49.0°F9.4°C 44.4°F6.9°C 84% 2.0 mph SSE3.2 kmh SSE 3.0 mph4.8 kmh 30.12 in1020.0 mb 0.00 in0.0 mm 0.00 in0.0 mm 0.04 in1.0 mm
07:18 PM 49.0°F9.4°C 44.7°F7.1°C 85% 1.0 mph NE1.6 kmh NE 8.0 mph12.9 kmh 30.12 in1020.0 mb 0.00 in0.0 mm 0.00 in0.0 mm 0.04 in1.0 mm
07:16 PM 49.1°F9.5°C 45.1°F7.3°C 86% 1.0 mph SE1.6 kmh SE 8.0 mph12.9 kmh 30.11 in1019.6 mb 0.00 in0.0 mm 0.00 in0.0 mm 0.04 in1.0 mm
07:14 PM 49.1°F9.5°C 45.1°F7.3°C 86% 1.0 mph SE1.6 kmh SE 8.0 mph12.9 kmh 30.11 in1019.6 mb 0.00 in0.0 mm 0.00 in0.0 mm 0.04 in1.0 mm
07:12 PM 49.2°F9.6°C 44.9°F7.2°C 85% 1.0 mph E1.6 kmh E 8.0 mph12.9 kmh 30.11 in1019.6 mb 0.00 in0.0 mm 0.00 in0.0 mm 0.04 in1.0 mm
07:10 PM 49.2°F9.6°C 45.2°F7.3°C 86% 1.0 mph NW1.6 kmh NW 8.0 mph12.9 kmh 30.12 in1020.0 mb 0.00 in0.0 mm 0.00 in0.0 mm 0.04 in1.0 mm
07:08 PM 49.2°F9.6°C 45.5°F7.5°C 87% 2.0 mph NW3.2 kmh NW 8.0 mph12.9 kmh 30.11 in1019.6 mb 0.00 in0.0 mm 0.00 in0.0 mm 0.04 in1.0 mm
07:06 PM 49.3°F9.6°C 46.2°F7.9°C 89% 1.0 mph S1.6 kmh S 8.0 mph12.9 kmh 30.10 in1019.3 mb 0.00 in0.0 mm 0.00 in0.0 mm 0.04 in1.0 mm
07:04 PM 49.3°F9.6°C 46.8°F8.2°C 91% 2.0 mph NW3.2 kmh NW 8.0 mph12.9 kmh 30.11 in1019.6 mb 0.00 in0.0 mm 0.00 in0.0 mm 0.04 in1.0 mm
07:02 PM 49.4°F9.7°C 46.3°F7.9°C 89% 1.0 mph WNW1.6 kmh WNW 8.0 mph12.9 kmh 30.11 in1019.6 mb 0.00 in0.0 mm 0.00 in0.0 mm 0.04 in1.0 mm
07:00 PM 49.5°F9.7°C 46.1°F7.8°C 88% 2.0 mph WNW3.2 kmh WNW 8.0 mph12.9 kmh 30.10 in1019.3 mb 0.00 in0.0 mm 0.00 in0.0 mm 0.04 in1.0 mm
06:58 PM 49.6°F9.8°C 46.2°F7.9°C 88% 3.0 mph SW4.8 kmh SW 6.0 mph9.7 kmh 30.10 in1019.3 mb 0.00 in0.0 mm 0.00 in0.0 mm 0.04 in1.0 mm
06:56 PM 49.7°F9.8°C 46.0°F7.8°C 87% 3.0 mph SSW4.8 kmh SSW 6.0 mph9.7 kmh 30.10 in1019.3 mb 0.00 in0.0 mm 0.00 in0.0 mm 0.04 in1.0 mm
06:54 PM 49.7°F9.8°C 46.0°F7.8°C 87% 1.0 mph NW1.6 kmh NW 6.0 mph9.7 kmh 30.10 in1019.3 mb 0.00 in0.0 mm 0.00 in0.0 mm 0.04 in1.0 mm
06:52 PM 49.7°F9.8°C 46.3°F7.9°C 88% Calm Calm 6.0 mph9.7 kmh 30.10 in1019.3 mb 0.00 in0.0 mm 0.00 in0.0 mm 0.04 in1.0 mm
06:50 PM 49.8°F9.9°C 46.7°F8.2°C 89% 2.0 mph NW3.2 kmh NW 6.0 mph9.7 kmh 30.10 in1019.3 mb 0.00 in0.0 mm 0.00 in0.0 mm 0.04 in1.0 mm
06:48 PM 49.8°F9.9°C 47.3°F8.5°C 91% 1.0 mph NNW1.6 kmh NNW 6.0 mph9.7 kmh 30.09 in1019.0 mb 0.00 in0.0 mm 0.00 in0.0 mm 0.04 in1.0 mm
06:46 PM 49.9°F9.9°C 47.4°F8.6°C 91% 2.0 mph NNW3.2 kmh NNW 6.0 mph9.7 kmh 30.09 in1019.0 mb 0.00 in0.0 mm 0.00 in0.0 mm 0.04 in1.0 mm
06:44 PM 49.9°F9.9°C 47.4°F8.6°C 91% 1.0 mph NE1.6 kmh NE 6.0 mph9.7 kmh 30.09 in1019.0 mb 0.00 in0.0 mm 0.00 in0.0 mm 0.04 in1.0 mm
06:42 PM 50.0°F10.0°C 47.2°F8.4°C 90% 2.0 mph N3.2 kmh N 5.0 mph8.0 kmh 30.08 in1018.6 mb 0.00 in0.0 mm 0.00 in0.0 mm 0.04 in1.0 mm
06:40 PM 50.1°F10.1°C 47.0°F8.3°C 89% 2.0 mph NNW3.2 kmh NNW 5.0 mph8.0 kmh 30.09 in1019.0 mb 0.00 in0.0 mm 0.00 in0.0 mm 0.04 in1.0 mm
06:38 PM 50.1°F10.1°C 46.7°F8.2°C 88% 1.0 mph NNW1.6 kmh NNW 5.0 mph8.0 kmh 30.09 in1019.0 mb 0.00 in0.0 mm 0.00 in0.0 mm 0.04 in1.0 mm
06:36 PM 50.3°F10.2°C 46.6°F8.1°C 87% 2.0 mph NW3.2 kmh NW 5.0 mph8.0 kmh 30.09 in1019.0 mb 0.00 in0.0 mm 0.00 in0.0 mm 0.04 in1.0 mm
06:34 PM 50.3°F10.2°C 46.9°F8.3°C 88% 2.0 mph 3.2 kmh 5.0 mph8.0 kmh 30.09 in1019.0 mb 0.00 in0.0 mm 0.00 in0.0 mm 0.04 in1.0 mm
06:32 PM 50.3°F10.2°C 46.9°F8.3°C 88% 3.0 mph WNW4.8 kmh WNW 5.0 mph8.0 kmh 30.08 in1018.6 mb 0.00 in0.0 mm 0.00 in0.0 mm 0.04 in1.0 mm
06:30 PM 50.4°F10.2°C 47.3°F8.5°C 89% Calm Calm 5.0 mph8.0 kmh 30.09 in1019.0 mb 0.00 in0.0 mm 0.00 in0.0 mm 0.04 in1.0 mm
06:28 PM 50.5°F10.3°C 46.5°F8.1°C 86% 2.0 mph WNW3.2 kmh WNW 5.0 mph8.0 kmh 30.09 in1019.0 mb 0.00 in0.0 mm 0.00 in0.0 mm 0.04 in1.0 mm
06:26 PM 50.6°F10.3°C 44.7°F7.1°C 80% 1.0 mph N1.6 kmh N 4.0 mph6.4 kmh 30.08 in1018.6 mb 0.00 in0.0 mm 0.00 in0.0 mm 0.04 in1.0 mm
06:24 PM 50.7°F10.4°C 44.8°F7.1°C 80% 1.0 mph SSW1.6 kmh SSW 4.0 mph6.4 kmh 30.08 in1018.6 mb 0.00 in0.0 mm 0.00 in0.0 mm 0.04 in1.0 mm
06:22 PM 50.7°F10.4°C 45.4°F7.4°C 82% Calm Calm 9.0 mph14.5 kmh 30.09 in1019.0 mb 0.00 in0.0 mm 0.00 in0.0 mm 0.04 in1.0 mm
06:20 PM 50.7°F10.4°C 46.0°F7.8°C 84% 2.0 mph W3.2 kmh W 9.0 mph14.5 kmh 30.08 in1018.6 mb 0.00 in0.0 mm 0.00 in0.0 mm 0.04 in1.0 mm
06:18 PM 50.8°F10.4°C 45.5°F7.5°C 82% Calm Calm 9.0 mph14.5 kmh 30.08 in1018.6 mb 0.00 in0.0 mm 0.00 in0.0 mm 0.04 in1.0 mm
06:16 PM 50.9°F10.5°C 45.0°F7.2°C 80% 1.0 mph W1.6 kmh W 9.0 mph14.5 kmh 30.09 in1019.0 mb 0.00 in0.0 mm 0.00 in0.0 mm 0.04 in1.0 mm
06:14 PM 50.8°F10.4°C 46.5°F8.1°C 85% 2.0 mph W3.2 kmh W 9.0 mph14.5 kmh 30.08 in1018.6 mb 0.00 in0.0 mm 0.00 in0.0 mm 0.04 in1.0 mm
06:12 PM 50.8°F10.4°C 47.1°F8.4°C 87% 1.0 mph W1.6 kmh W 9.0 mph14.5 kmh 30.07 in1018.3 mb 0.00 in0.0 mm 0.00 in0.0 mm 0.04 in1.0 mm
06:10 PM 50.8°F10.4°C 47.7°F8.7°C 89% 1.0 mph WNW1.6 kmh WNW 9.0 mph14.5 kmh 30.08 in1018.6 mb 0.00 in0.0 mm 0.00 in0.0 mm 0.04 in1.0 mm
06:08 PM 50.9°F10.5°C 47.2°F8.4°C 87% 2.0 mph W3.2 kmh W 9.0 mph14.5 kmh 30.09 in1019.0 mb 0.00 in0.0 mm 0.00 in0.0 mm 0.04 in1.0 mm
06:06 PM 50.9°F10.5°C 46.2°F7.9°C 84% 2.0 mph WSW3.2 kmh WSW 9.0 mph14.5 kmh 30.09 in1019.0 mb 0.00 in0.0 mm 0.00 in0.0 mm 0.04 in1.0 mm
06:04 PM 51.0°F10.6°C 45.7°F7.6°C 82% 3.0 mph SW4.8 kmh SW 9.0 mph14.5 kmh 30.08 in1018.6 mb 0.00 in0.0 mm 0.00 in0.0 mm 0.04 in1.0 mm
06:02 PM 51.1°F10.6°C 45.1°F7.3°C 80% 3.0 mph WSW4.8 kmh WSW 7.0 mph11.3 kmh 30.08 in1018.6 mb 0.00 in0.0 mm 0.00 in0.0 mm 0.04 in1.0 mm
06:00 PM 51.2°F10.7°C 42.8°F6.0°C 73% 2.0 mph W3.2 kmh W 4.0 mph6.4 kmh 30.08 in1018.6 mb 0.00 in0.0 mm 0.00 in0.0 mm 0.04 in1.0 mm
05:58 PM 51.2°F10.7°C 41.0°F5.0°C 68% Calm Calm 4.0 mph6.4 kmh 30.08 in1018.6 mb 0.00 in0.0 mm 0.00 in0.0 mm 0.04 in1.0 mm
05:56 PM 51.2°F10.7°C 43.2°F6.2°C 74% 1.0 mph WSW1.6 kmh WSW 4.0 mph6.4 kmh 30.07 in1018.3 mb 0.00 in0.0 mm 0.00 in0.0 mm 0.04 in1.0 mm
05:54 PM 51.3°F10.7°C 43.6°F6.4°C 75% 1.0 mph SE1.6 kmh SE 4.0 mph6.4 kmh 30.06 in1017.9 mb 0.00 in0.0 mm 0.00 in0.0 mm 0.04 in1.0 mm
05:52 PM 51.3°F10.7°C 42.2°F5.7°C 71% 1.0 mph ENE1.6 kmh ENE 10.0 mph16.1 kmh 30.07 in1018.3 mb 0.00 in0.0 mm 0.00 in0.0 mm 0.04 in1.0 mm
05:50 PM 51.3°F10.7°C 42.9°F6.1°C 73% 1.0 mph ENE1.6 kmh ENE 10.0 mph16.1 kmh 30.07 in1018.3 mb 0.00 in0.0 mm 0.00 in0.0 mm 0.04 in1.0 mm
05:48 PM 51.3°F10.7°C 42.2°F5.7°C 71% Calm Calm 10.0 mph16.1 kmh 30.07 in1018.3 mb 0.00 in0.0 mm 0.00 in0.0 mm 0.04 in1.0 mm
05:46 PM 51.4°F10.8°C 42.7°F5.9°C 72% 1.0 mph WNW1.6 kmh WNW 10.0 mph16.1 kmh 30.06 in1017.9 mb 0.00 in0.0 mm 0.00 in0.0 mm 0.04 in1.0 mm
05:44 PM 51.4°F10.8°C 42.3°F5.7°C 71% 1.0 mph WNW1.6 kmh WNW 10.0 mph16.1 kmh 30.06 in1017.9 mb 0.00 in0.0 mm 0.00 in0.0 mm 0.04 in1.0 mm
05:42 PM 51.3°F10.7°C 45.3°F7.4°C 80% 1.0 mph S1.6 kmh S 10.0 mph16.1 kmh 30.07 in1018.3 mb 0.00 in0.0 mm 0.00 in0.0 mm 0.04 in1.0 mm
05:40 PM 51.4°F10.8°C 44.4°F6.9°C 77% 2.0 mph SE3.2 kmh SE 10.0 mph16.1 kmh 30.07 in1018.3 mb 0.00 in0.0 mm 0.00 in0.0 mm 0.04 in1.0 mm
05:38 PM 51.4°F10.8°C 44.4°F6.9°C 77% 1.0 mph WNW1.6 kmh WNW 10.0 mph16.1 kmh 30.06 in1017.9 mb 0.00 in0.0 mm 0.00 in0.0 mm 0.04 in1.0 mm
05:36 PM 51.4°F10.8°C 43.7°F6.5°C 75% 1.0 mph N1.6 kmh N 10.0 mph16.1 kmh 30.07 in1018.3 mb 0.00 in0.0 mm 0.00 in0.0 mm 0.04 in1.0 mm
05:34 PM 51.4°F10.8°C 46.1°F7.8°C 82% 2.0 mph N3.2 kmh N 10.0 mph16.1 kmh 30.07 in1018.3 mb 0.00 in0.0 mm 0.00 in0.0 mm 0.04 in1.0 mm
05:32 PM 51.4°F10.8°C 44.1°F6.7°C 76% 2.0 mph W3.2 kmh W 7.0 mph11.3 kmh 30.07 in1018.3 mb 0.00 in0.0 mm 0.00 in0.0 mm 0.04 in1.0 mm
05:30 PM 51.5°F10.8°C 43.8°F6.6°C 75% 1.0 mph W1.6 kmh W 7.0 mph11.3 kmh 30.06 in1017.9 mb 0.00 in0.0 mm 0.00 in0.0 mm 0.04 in1.0 mm
05:28 PM 51.5°F10.8°C 43.8°F6.6°C 75% Calm Calm 5.0 mph8.0 kmh 30.06 in1017.9 mb 0.00 in0.0 mm 0.00 in0.0 mm 0.04 in1.0 mm
05:26 PM 51.6°F10.9°C 43.9°F6.6°C 75% Calm Calm 10.0 mph16.1 kmh 30.06 in1017.9 mb 0.00 in0.0 mm 0.00 in0.0 mm 0.04 in1.0 mm
05:24 PM 51.7°F10.9°C 41.1°F5.1°C 67% 1.0 mph SE1.6 kmh SE 10.0 mph16.1 kmh 30.07 in1018.3 mb 0.00 in0.0 mm 0.00 in0.0 mm 0.04 in1.0 mm
05:22 PM 51.7°F10.9°C 41.9°F5.5°C 69% 1.0 mph WSW1.6 kmh WSW 10.0 mph16.1 kmh 30.07 in1018.3 mb 0.00 in0.0 mm 0.00 in0.0 mm 0.04 in1.0 mm
05:20 PM 51.7°F10.9°C 41.9°F5.5°C 69% 2.0 mph NW3.2 kmh NW 10.0 mph16.1 kmh 30.07 in1018.3 mb 0.00 in0.0 mm 0.00 in0.0 mm 0.04 in1.0 mm
05:18 PM 51.7°F10.9°C 43.0°F6.1°C 72% 1.0 mph WNW1.6 kmh WNW 10.0 mph16.1 kmh 30.06 in1017.9 mb 0.00 in0.0 mm 0.00 in0.0 mm 0.04 in1.0 mm
05:16 PM 51.7°F10.9°C 43.3°F6.3°C 73% 3.0 mph WNW4.8 kmh WNW 10.0 mph16.1 kmh 30.05 in1017.6 mb 0.00 in0.0 mm 0.00 in0.0 mm 0.04 in1.0 mm
05:14 PM 51.8°F11.0°C 43.1°F6.2°C 72% 4.0 mph NW6.4 kmh NW 10.0 mph16.1 kmh 30.06 in1017.9 mb 0.00 in0.0 mm 0.00 in0.0 mm 0.04 in1.0 mm
05:12 PM 51.8°F11.0°C 42.7°F5.9°C 71% 2.0 mph WNW3.2 kmh WNW 10.0 mph16.1 kmh 30.06 in1017.9 mb 0.00 in0.0 mm 0.00 in0.0 mm 0.04 in1.0 mm
05:10 PM 51.9°F11.1°C 44.2°F6.8°C 75% 3.0 mph NW4.8 kmh NW 10.0 mph16.1 kmh 30.06 in1017.9 mb 0.00 in0.0 mm 0.00 in0.0 mm 0.04 in1.0 mm
05:08 PM 51.9°F11.1°C 44.6°F7.0°C 83% 1.0 mph WSW1.6 kmh WSW 10.0 mph16.1 kmh 30.06 in1017.9 mb 0.00 in0.0 mm 0.00 in0.0 mm 0.04 in1.0 mm
05:06 PM 52.0°F11.1°C 42.5°F5.8°C 77% 2.0 mph W3.2 kmh W 9.0 mph14.5 kmh 30.05 in1017.6 mb 0.00 in0.0 mm 0.00 in0.0 mm 0.04 in1.0 mm
05:04 PM 52.1°F11.2°C 43.7°F6.5°C 80% 2.0 mph WNW3.2 kmh WNW 7.0 mph11.3 kmh 30.05 in1017.6 mb 0.00 in0.0 mm 0.00 in0.0 mm 0.04 in1.0 mm
05:02 PM 52.2°F11.2°C 40.0°F4.4°C 70% 3.0 mph W4.8 kmh W 7.0 mph11.3 kmh 30.05 in1017.6 mb 0.00 in0.0 mm 0.00 in0.0 mm 0.04 in1.0 mm
05:00 PM 52.2°F11.2°C 41.6°F5.3°C 74% 1.0 mph NNW1.6 kmh NNW 7.0 mph11.3 kmh 30.05 in1017.6 mb 0.00 in0.0 mm 0.00 in0.0 mm 0.04 in1.0 mm
04:58 PM 52.3°F11.3°C 42.8°F6.0°C 77% 1.0 mph W1.6 kmh W 7.0 mph11.3 kmh 30.05 in1017.6 mb 0.00 in0.0 mm 0.00 in0.0 mm 0.04 in1.0 mm
04:56 PM 52.3°F11.3°C 45.6°F7.6°C 85% 1.0 mph WNW1.6 kmh WNW 7.0 mph11.3 kmh 30.05 in1017.6 mb 0.00 in0.0 mm 0.00 in0.0 mm 0.04 in1.0 mm
04:54 PM 52.4°F11.3°C 40.2°F4.6°C 70% 7.0 mph WNW11.3 kmh WNW 9.0 mph14.5 kmh 30.05 in1017.6 mb 0.00 in0.0 mm 0.00 in0.0 mm 0.04 in1.0 mm
04:52 PM 52.5°F11.4°C 40.3°F4.6°C 70% Calm Calm 9.0 mph14.5 kmh 30.05 in1017.6 mb 0.00 in0.0 mm 0.00 in0.0 mm 0.04 in1.0 mm
04:50 PM 52.5°F11.4°C 38.6°F3.7°C 66% 1.0 mph W1.6 kmh W 9.0 mph14.5 kmh 30.05 in1017.6 mb 0.00 in0.0 mm 0.00 in0.0 mm 0.04 in1.0 mm
04:48 PM 52.5°F11.4°C 40.3°F4.6°C 70% Calm Calm 9.0 mph14.5 kmh 30.05 in1017.6 mb 0.00 in0.0 mm 0.00 in0.0 mm 0.04 in1.0 mm
04:46 PM 52.5°F11.4°C 41.9°F5.5°C 74% 3.0 mph S4.8 kmh S 9.0 mph14.5 kmh 30.05 in1017.6 mb 0.00 in0.0 mm 0.00 in0.0 mm 0.04 in1.0 mm
04:44 PM 52.6°F11.4°C 39.5°F4.2°C 68% 3.0 mph WNW4.8 kmh WNW 11.0 mph17.7 kmh 30.05 in1017.6 mb 0.00 in0.0 mm 0.00 in0.0 mm 0.04 in1.0 mm
04:42 PM 52.6°F11.4°C 39.1°F3.9°C 67% Calm Calm 11.0 mph17.7 kmh 30.04 in1017.3 mb 0.00 in0.0 mm 0.00 in0.0 mm 0.04 in1.0 mm
04:40 PM 52.6°F11.4°C 38.2°F3.4°C 65% 2.0 mph NW3.2 kmh NW 11.0 mph17.7 kmh 30.05 in1017.6 mb 0.00 in0.0 mm 0.00 in0.0 mm 0.04 in1.0 mm
04:38 PM 52.6°F11.4°C 36.4°F2.4°C 61% Calm Calm 11.0 mph17.7 kmh 30.05 in1017.6 mb 0.00 in0.0 mm 0.00 in0.0 mm 0.04 in1.0 mm
04:36 PM 52.7°F11.5°C 34.1°F1.2°C 56% 3.0 mph NW4.8 kmh NW 11.0 mph17.7 kmh 30.05 in1017.6 mb 0.00 in0.0 mm 0.00 in0.0 mm 0.04 in1.0 mm
04:34 PM 52.7°F11.5°C 34.1°F1.2°C 56% 2.0 mph N3.2 kmh N 11.0 mph17.7 kmh 30.05 in1017.6 mb 0.00 in0.0 mm 0.00 in0.0 mm 0.04 in1.0 mm
04:32 PM 52.7°F11.5°C 32.0°F0.0°C 52% 2.0 mph N3.2 kmh N 11.0 mph17.7 kmh 30.04 in1017.3 mb 0.00 in0.0 mm 0.00 in0.0 mm 0.04 in1.0 mm
04:30 PM 52.6°F11.4°C 31.3°F-0.4°C 51% 2.0 mph NNW3.2 kmh NNW 11.0 mph17.7 kmh 30.04 in1017.3 mb 0.00 in0.0 mm 0.00 in0.0 mm 0.04 in1.0 mm
04:28 PM 52.6°F11.4°C 31.3°F-0.4°C 51% 2.0 mph N3.2 kmh N 11.0 mph17.7 kmh 30.04 in1017.3 mb 0.00 in0.0 mm 0.00 in0.0 mm 0.04 in1.0 mm
04:26 PM 52.6°F11.4°C 32.4°F0.2°C 53% 2.0 mph NW3.2 kmh NW 11.0 mph17.7 kmh 30.05 in1017.6 mb 0.00 in0.0 mm 0.00 in0.0 mm 0.04 in1.0 mm
04:24 PM 52.6°F11.4°C 31.9°F-0.1°C 52% 2.0 mph NW3.2 kmh NW 8.0 mph12.9 kmh 30.05 in1017.6 mb 0.00 in0.0 mm 0.00 in0.0 mm 0.04 in1.0 mm
04:22 PM 52.6°F11.4°C 31.9°F-0.1°C 52% 3.0 mph SSW4.8 kmh SSW 8.0 mph12.9 kmh 30.05 in1017.6 mb 0.00 in0.0 mm 0.00 in0.0 mm 0.04 in1.0 mm
04:20 PM 52.6°F11.4°C 30.2°F-1.0°C 49% 6.0 mph W9.7 kmh W 8.0 mph12.9 kmh 30.05 in1017.6 mb 0.00 in0.0 mm 0.00 in0.0 mm 0.04 in1.0 mm
04:18 PM 52.6°F11.4°C 25.7°F-3.5°C 42% 3.0 mph WNW4.8 kmh WNW 8.0 mph12.9 kmh 30.04 in1017.3 mb 0.00 in0.0 mm 0.00 in0.0 mm 0.04 in1.0 mm
04:14 PM 52.7°F11.5°C 23.7°F-4.6°C 39% 1.0 mph NNW1.6 kmh NNW 8.0 mph12.9 kmh 30.04 in1017.3 mb 0.00 in0.0 mm 0.00 in0.0 mm 0.04 in1.0 mm
04:12 PM 52.7°F11.5°C 22.9°F-5.1°C 38% 1.0 mph NW1.6 kmh NW 7.0 mph11.3 kmh 30.05 in1017.6 mb 0.00 in0.0 mm 0.00 in0.0 mm 0.04 in1.0 mm
04:10 PM 52.7°F11.5°C 22.9°F-5.1°C 38% 2.0 mph SE3.2 kmh SE 7.0 mph11.3 kmh 30.04 in1017.3 mb 0.00 in0.0 mm 0.00 in0.0 mm 0.04 in1.0 mm
04:08 PM 52.7°F11.5°C 25.1°F-3.8°C 41% 2.0 mph NW3.2 kmh NW 6.0 mph9.7 kmh 30.05 in1017.6 mb 0.00 in0.0 mm 0.00 in0.0 mm 0.04 in1.0 mm
04:06 PM 52.7°F11.5°C 28.4°F-2.0°C 46% 2.0 mph N3.2 kmh N 6.0 mph9.7 kmh 30.04 in1017.3 mb 0.00 in0.0 mm 0.00 in0.0 mm 0.04 in1.0 mm
04:04 PM 52.8°F11.6°C 29.2°F-1.6°C 47% 2.0 mph WNW3.2 kmh WNW 6.0 mph9.7 kmh 30.04 in1017.3 mb 0.00 in0.0 mm 0.00 in0.0 mm 0.04 in1.0 mm
04:02 PM 52.9°F11.6°C 32.1°F0.1°C 52% 3.0 mph NW4.8 kmh NW 6.0 mph9.7 kmh 30.04 in1017.3 mb 0.00 in0.0 mm 0.00 in0.0 mm 0.04 in1.0 mm
04:00 PM 53.0°F11.7°C 29.3°F-1.5°C 47% 4.0 mph NE6.4 kmh NE 4.0 mph6.4 kmh 30.04 in1017.3 mb 0.00 in0.0 mm 0.00 in0.0 mm 0.04 in1.0 mm
03:58 PM 53.1°F11.7°C 26.9°F-2.8°C 43% 3.0 mph N4.8 kmh N 4.0 mph6.4 kmh 30.04 in1017.3 mb 0.00 in0.0 mm 0.00 in0.0 mm 0.04 in1.0 mm
03:56 PM 53.1°F11.7°C 24.0°F-4.4°C 39% 1.0 mph NW1.6 kmh NW 4.0 mph6.4 kmh 30.04 in1017.3 mb 0.00 in0.0 mm 0.00 in0.0 mm 0.04 in1.0 mm
03:54 PM 53.1°F11.7°C 23.3°F-4.8°C 38% 3.0 mph N4.8 kmh N 4.0 mph6.4 kmh 30.04 in1017.3 mb 0.00 in0.0 mm 0.00 in0.0 mm 0.04 in1.0 mm
03:52 PM 53.1°F11.7°C 24.0°F-4.4°C 39% 1.0 mph N1.6 kmh N 2.0 mph3.2 kmh 30.03 in1016.9 mb 0.00 in0.0 mm 0.00 in0.0 mm 0.04 in1.0 mm
03:50 PM 53.1°F11.7°C 24.0°F-4.4°C 39% Calm Calm -- 30.03 in1016.9 mb 0.00 in0.0 mm 0.00 in0.0 mm 0.04 in1.0 mm
03:48 PM 53.1°F11.7°C 25.5°F-3.6°C 41% Calm Calm 7.0 mph11.3 kmh 30.03 in1016.9 mb 0.00 in0.0 mm 0.00 in0.0 mm 0.04 in1.0 mm
03:46 PM 53.1°F11.7°C 30.0°F-1.1°C 48% 1.0 mph NNE1.6 kmh NNE 7.0 mph11.3 kmh 30.03 in1016.9 mb 0.00 in0.0 mm 0.00 in0.0 mm 0.04 in1.0 mm
03:44 PM 53.1°F11.7°C 32.9°F0.5°C 53% 1.0 mph ENE1.6 kmh ENE 7.0 mph11.3 kmh 30.03 in1016.9 mb 0.00 in0.0 mm 0.00 in0.0 mm 0.04 in1.0 mm
03:42 PM 53.2°F11.8°C 28.9°F-1.7°C 46% 5.0 mph NW8.0 kmh NW 7.0 mph11.3 kmh 30.03 in1016.9 mb 0.00 in0.0 mm 0.00 in0.0 mm 0.04 in1.0 mm
03:40 PM 53.3°F11.8°C 30.2°F-1.0°C 48% 3.0 mph NW4.8 kmh NW 7.0 mph11.3 kmh 30.03 in1016.9 mb 0.00 in0.0 mm 0.00 in0.0 mm 0.04 in1.0 mm
03:38 PM 53.4°F11.9°C 32.0°F0.0°C 51% 1.0 mph W1.6 kmh W 7.0 mph11.3 kmh 30.02 in1016.6 mb 0.00 in0.0 mm 0.00 in0.0 mm 0.04 in1.0 mm
03:36 PM 53.5°F11.9°C 26.5°F-3.1°C 42% 1.0 mph SE1.6 kmh SE 7.0 mph11.3 kmh 30.02 in1016.6 mb 0.00 in0.0 mm 0.00 in0.0 mm 0.04 in1.0 mm
03:34 PM 53.5°F11.9°C 26.5°F-3.1°C 42% 2.0 mph S3.2 kmh S 7.0 mph11.3 kmh 30.02 in1016.6 mb 0.00 in0.0 mm 0.00 in0.0 mm 0.04 in1.0 mm
03:32 PM 53.6°F12.0°C 25.9°F-3.4°C 41% 3.0 mph NNW4.8 kmh NNW 7.0 mph11.3 kmh 30.03 in1016.9 mb 0.00 in0.0 mm 0.00 in0.0 mm 0.04 in1.0 mm
03:30 PM 53.7°F12.1°C 25.3°F-3.7°C 40% 3.0 mph NW4.8 kmh NW 7.0 mph11.3 kmh 30.02 in1016.6 mb 0.00 in0.0 mm 0.00 in0.0 mm 0.04 in1.0 mm
03:28 PM 53.7°F12.1°C 24.6°F-4.1°C 39% 1.0 mph W1.6 kmh W 7.0 mph11.3 kmh 30.02 in1016.6 mb 0.00 in0.0 mm 0.00 in0.0 mm 0.04 in1.0 mm
03:26 PM 53.8°F12.1°C 23.9°F-4.5°C 38% 3.0 mph ENE4.8 kmh ENE 7.0 mph11.3 kmh 30.02 in1016.6 mb 0.00 in0.0 mm 0.00 in0.0 mm 0.04 in1.0 mm
03:24 PM 53.8°F12.1°C 23.9°F-4.5°C 38% 2.0 mph WNW3.2 kmh WNW 10.0 mph16.1 kmh 30.03 in1016.9 mb 0.00 in0.0 mm 0.00 in0.0 mm 0.04 in1.0 mm
03:22 PM 53.8°F12.1°C 24.6°F-4.1°C 39% 3.0 mph NW4.8 kmh NW 10.0 mph16.1 kmh 30.03 in1016.9 mb 0.00 in0.0 mm 0.00 in0.0 mm 0.04 in1.0 mm
03:20 PM 53.8°F12.1°C 23.9°F-4.5°C 38% 2.0 mph NW3.2 kmh NW 10.0 mph16.1 kmh 30.03 in1016.9 mb 0.00 in0.0 mm 0.00 in0.0 mm 0.04 in1.0 mm
03:18 PM 53.8°F12.1°C 23.9°F-4.5°C 38% 1.0 mph NW1.6 kmh NW 10.0 mph16.1 kmh 30.03 in1016.9 mb 0.00 in0.0 mm 0.00 in0.0 mm 0.04 in1.0 mm
03:16 PM 53.7°F12.1°C 23.8°F-4.6°C 38% 3.0 mph WNW4.8 kmh WNW 10.0 mph16.1 kmh 30.03 in1016.9 mb 0.00 in0.0 mm 0.00 in0.0 mm 0.04 in1.0 mm
03:14 PM 53.8°F12.1°C 23.9°F-4.5°C 38% Calm Calm 10.0 mph16.1 kmh 30.03 in1016.9 mb 0.00 in0.0 mm 0.00 in0.0 mm 0.04 in1.0 mm
03:12 PM 53.7°F12.1°C 23.8°F-4.6°C 38% 2.0 mph NW3.2 kmh NW 10.0 mph16.1 kmh 30.03 in1016.9 mb 0.00 in0.0 mm 0.00 in0.0 mm 0.04 in1.0 mm
03:10 PM 53.7°F12.1°C 23.8°F-4.6°C 38% 2.0 mph W3.2 kmh W 10.0 mph16.1 kmh 30.03 in1016.9 mb 0.00 in0.0 mm 0.00 in0.0 mm 0.04 in1.0 mm
03:08 PM 53.7°F12.1°C 23.8°F-4.6°C 38% 2.0 mph NW3.2 kmh NW 10.0 mph16.1 kmh 30.02 in1016.6 mb 0.00 in0.0 mm 0.00 in0.0 mm 0.04 in1.0 mm
03:06 PM 53.7°F12.1°C 23.8°F-4.6°C 38% 4.0 mph NE6.4 kmh NE 10.0 mph16.1 kmh 30.02 in1016.6 mb 0.00 in0.0 mm 0.00 in0.0 mm 0.04 in1.0 mm
03:04 PM 53.7°F12.1°C 23.8°F-4.6°C 38% 6.0 mph W9.7 kmh W 9.0 mph14.5 kmh 30.02 in1016.6 mb 0.00 in0.0 mm 0.00 in0.0 mm 0.04 in1.0 mm
03:02 PM 53.8°F12.1°C 23.9°F-4.5°C 38% 2.0 mph NNW3.2 kmh NNW 11.0 mph17.7 kmh 30.02 in1016.6 mb 0.00 in0.0 mm 0.00 in0.0 mm 0.04 in1.0 mm
03:00 PM 53.8°F12.1°C 23.9°F-4.5°C 38% 1.0 mph NNW1.6 kmh NNW 11.0 mph17.7 kmh 30.02 in1016.6 mb 0.00 in0.0 mm 0.00 in0.0 mm 0.04 in1.0 mm
02:58 PM 53.9°F12.2°C 24.0°F-4.4°C 38% 2.0 mph NW3.2 kmh NW 11.0 mph17.7 kmh 30.02 in1016.6 mb 0.00 in0.0 mm 0.00 in0.0 mm 0.04 in1.0 mm
02:56 PM 53.9°F12.2°C 24.0°F-4.4°C 38% 2.0 mph NW3.2 kmh NW 11.0 mph17.7 kmh 30.01 in1016.3 mb 0.00 in0.0 mm 0.00 in0.0 mm 0.04 in1.0 mm
02:54 PM 54.1°F12.3°C 24.1°F-4.4°C 38% 3.0 mph WSW4.8 kmh WSW 11.0 mph17.7 kmh 30.01 in1016.3 mb 0.00 in0.0 mm 0.00 in0.0 mm 0.04 in1.0 mm
02:52 PM 54.2°F12.3°C 24.2°F-4.3°C 38% 2.0 mph E3.2 kmh E 11.0 mph17.7 kmh 30.00 in1015.9 mb 0.00 in0.0 mm 0.00 in0.0 mm 0.04 in1.0 mm
02:50 PM 54.3°F12.4°C 24.3°F-4.3°C 38% 2.0 mph E3.2 kmh E 11.0 mph17.7 kmh 30.00 in1015.9 mb 0.00 in0.0 mm 0.00 in0.0 mm 0.04 in1.0 mm
02:48 PM 54.4°F12.4°C 24.4°F-4.2°C 38% 3.0 mph NNE4.8 kmh NNE 11.0 mph17.7 kmh 30.00 in1015.9 mb 0.00 in0.0 mm 0.00 in0.0 mm 0.04 in1.0 mm
02:46 PM 54.4°F12.4°C 24.4°F-4.2°C 38% 3.0 mph NW4.8 kmh NW 11.0 mph17.7 kmh 30.00 in1015.9 mb 0.00 in0.0 mm 0.00 in0.0 mm 0.04 in1.0 mm
02:44 PM 54.5°F12.5°C 24.5°F-4.2°C 38% 1.0 mph N1.6 kmh N 11.0 mph17.7 kmh 30.01 in1016.3 mb 0.00 in0.0 mm 0.00 in0.0 mm 0.04 in1.0 mm
02:42 PM 54.7°F12.6°C 24.7°F-4.1°C 38% 1.0 mph SSE1.6 kmh SSE 8.0 mph12.9 kmh 30.00 in1015.9 mb 0.00 in0.0 mm 0.00 in0.0 mm 0.04 in1.0 mm
02:40 PM 54.8°F12.7°C 24.8°F-4.0°C 38% 2.0 mph NW3.2 kmh NW 8.0 mph12.9 kmh 30.00 in1015.9 mb 0.00 in0.0 mm 0.00 in0.0 mm 0.04 in1.0 mm
02:38 PM 54.9°F12.7°C 24.8°F-4.0°C 38% 1.0 mph WSW1.6 kmh WSW 8.0 mph12.9 kmh 30.00 in1015.9 mb 0.00 in0.0 mm 0.00 in0.0 mm 0.04 in1.0 mm
02:36 PM 55.0°F12.8°C 24.9°F-3.9°C 38% 4.0 mph SSE6.4 kmh SSE 6.0 mph9.7 kmh 30.00 in1015.9 mb 0.00 in0.0 mm 0.00 in0.0 mm 0.04 in1.0 mm
02:34 PM 55.1°F12.8°C 25.0°F-3.9°C 38% 4.0 mph SSW6.4 kmh SSW 6.0 mph9.7 kmh 30.00 in1015.9 mb 0.00 in0.0 mm 0.00 in0.0 mm 0.04 in1.0 mm
02:32 PM 55.1°F12.8°C 25.0°F-3.9°C 38% 4.0 mph SW6.4 kmh SW 6.0 mph9.7 kmh 30.00 in1015.9 mb 0.00 in0.0 mm 0.00 in0.0 mm 0.04 in1.0 mm
02:30 PM 55.1°F12.8°C 25.0°F-3.9°C 38% 1.0 mph NW1.6 kmh NW 6.0 mph9.7 kmh 29.99 in1015.6 mb 0.00 in0.0 mm 0.00 in0.0 mm 0.04 in1.0 mm
02:28 PM 55.1°F12.8°C 25.0°F-3.9°C 38% 1.0 mph NW1.6 kmh NW 6.0 mph9.7 kmh 29.99 in1015.6 mb 0.00 in0.0 mm 0.00 in0.0 mm 0.04 in1.0 mm
02:26 PM 55.0°F12.8°C 24.9°F-3.9°C 38% Calm Calm 6.0 mph9.7 kmh 30.00 in1015.9 mb 0.00 in0.0 mm 0.00 in0.0 mm 0.04 in1.0 mm
02:24 PM 55.0°F12.8°C 24.9°F-3.9°C 38% 1.0 mph SSW1.6 kmh SSW 6.0 mph9.7 kmh 30.00 in1015.9 mb 0.00 in0.0 mm 0.00 in0.0 mm 0.04 in1.0 mm
02:22 PM 54.9°F12.7°C 24.8°F-4.0°C 38% 3.0 mph SSW4.8 kmh SSW 6.0 mph9.7 kmh 30.00 in1015.9 mb 0.00 in0.0 mm 0.00 in0.0 mm 0.04 in1.0 mm
02:20 PM 54.9°F12.7°C 24.8°F-4.0°C 38% 2.0 mph WSW3.2 kmh WSW 6.0 mph9.7 kmh 30.00 in1015.9 mb 0.00 in0.0 mm 0.00 in0.0 mm 0.04 in1.0 mm
02:18 PM 54.9°F12.7°C 24.8°F-4.0°C 38% 1.0 mph S1.6 kmh S 6.0 mph9.7 kmh 30.00 in1015.9 mb 0.00 in0.0 mm 0.00 in0.0 mm 0.04 in1.0 mm
02:16 PM 54.9°F12.7°C 24.8°F-4.0°C 38% 2.0 mph WSW3.2 kmh WSW 6.0 mph9.7 kmh 29.99 in1015.6 mb 0.00 in0.0 mm 0.00 in0.0 mm 0.04 in1.0 mm
02:14 PM 54.8°F12.7°C 24.8°F-4.0°C 38% Calm Calm 6.0 mph9.7 kmh 30.00 in1015.9 mb 0.00 in0.0 mm 0.00 in0.0 mm 0.04 in1.0 mm
02:12 PM 54.8°F12.7°C 24.8°F-4.0°C 38% 1.0 mph S1.6 kmh S 6.0 mph9.7 kmh 30.00 in1015.9 mb 0.00 in0.0 mm 0.00 in0.0 mm 0.04 in1.0 mm
02:10 PM 54.7°F12.6°C 24.7°F-4.1°C 38% 2.0 mph SW3.2 kmh SW 6.0 mph9.7 kmh 30.00 in1015.9 mb 0.00 in0.0 mm 0.00 in0.0 mm 0.04 in1.0 mm
02:08 PM 54.7°F12.6°C 24.7°F-4.1°C 38% 3.0 mph S4.8 kmh S 6.0 mph9.7 kmh 30.00 in1015.9 mb 0.00 in0.0 mm 0.00 in0.0 mm 0.04 in1.0 mm
02:06 PM 54.6°F12.6°C 24.6°F-4.1°C 38% 2.0 mph NW3.2 kmh NW 6.0 mph9.7 kmh 30.00 in1015.9 mb 0.00 in0.0 mm 0.00 in0.0 mm 0.04 in1.0 mm
02:04 PM 54.6°F12.6°C 24.6°F-4.1°C 38% 2.0 mph W3.2 kmh W 6.0 mph9.7 kmh 30.00 in1015.9 mb 0.00 in0.0 mm 0.00 in0.0 mm 0.04 in1.0 mm
02:02 PM 54.6°F12.6°C 24.6°F-4.1°C 38% Calm Calm 6.0 mph9.7 kmh 30.00 in1015.9 mb 0.00 in0.0 mm 0.00 in0.0 mm 0.04 in1.0 mm
02:00 PM 54.5°F12.5°C 24.5°F-4.2°C 38% 1.0 mph SW1.6 kmh SW 6.0 mph9.7 kmh 30.00 in1015.9 mb 0.00 in0.0 mm 0.00 in0.0 mm 0.04 in1.0 mm
01:58 PM 54.5°F12.5°C 24.5°F-4.2°C 38% 1.0 mph SW1.6 kmh SW 6.0 mph9.7 kmh 30.00 in1015.9 mb 0.00 in0.0 mm 0.00 in0.0 mm 0.04 in1.0 mm
01:56 PM 54.5°F12.5°C 24.5°F-4.2°C 38% 2.0 mph E3.2 kmh E 4.0 mph6.4 kmh 30.00 in1015.9 mb 0.00 in0.0 mm 0.00 in0.0 mm 0.04 in1.0 mm
01:54 PM 54.4°F12.4°C 24.4°F-4.2°C 38% 3.0 mph W4.8 kmh W 3.0 mph4.8 kmh 30.00 in1015.9 mb 0.00 in0.0 mm 0.00 in0.0 mm 0.04 in1.0 mm
01:52 PM 54.3°F12.4°C 24.3°F-4.3°C 38% Calm Calm -- 30.00 in1015.9 mb 0.00 in0.0 mm 0.00 in0.0 mm 0.04 in1.0 mm
01:50 PM 54.2°F12.3°C 24.2°F-4.3°C 38% Calm Calm 8.0 mph12.9 kmh 30.00 in1015.9 mb 0.00 in0.0 mm 0.00 in0.0 mm 0.04 in1.0 mm
01:48 PM 54.1°F12.3°C 24.1°F-4.4°C 38% 1.0 mph SW1.6 kmh SW 10.0 mph16.1 kmh 30.00 in1015.9 mb 0.00 in0.0 mm 0.00 in0.0 mm 0.04 in1.0 mm
01:46 PM 54.0°F12.2°C 24.1°F-4.4°C 38% 1.0 mph NW1.6 kmh NW 10.0 mph16.1 kmh 30.00 in1015.9 mb 0.00 in0.0 mm 0.00 in0.0 mm 0.04 in1.0 mm
01:44 PM 54.0°F12.2°C 24.1°F-4.4°C 38% 3.0 mph SSW4.8 kmh SSW 10.0 mph16.1 kmh 30.00 in1015.9 mb 0.00 in0.0 mm 0.00 in0.0 mm 0.04 in1.0 mm
01:42 PM 54.0°F12.2°C 24.1°F-4.4°C 38% 1.0 mph WSW1.6 kmh WSW 10.0 mph16.1 kmh 30.01 in1016.3 mb 0.00 in0.0 mm 0.00 in0.0 mm 0.04 in1.0 mm
01:40 PM 53.9°F12.2°C 24.0°F-4.4°C 38% 2.0 mph W3.2 kmh W 10.0 mph16.1 kmh 30.01 in1016.3 mb 0.00 in0.0 mm 0.00 in0.0 mm 0.04 in1.0 mm
01:38 PM 53.9°F12.2°C 24.0°F-4.4°C 38% 2.0 mph NW3.2 kmh NW 10.0 mph16.1 kmh 30.01 in1016.3 mb 0.00 in0.0 mm 0.00 in0.0 mm 0.04 in1.0 mm
01:36 PM 53.8°F12.1°C 23.9°F-4.5°C 38% Calm Calm 10.0 mph16.1 kmh 30.01 in1016.3 mb 0.00 in0.0 mm 0.00 in0.0 mm 0.04 in1.0 mm
01:34 PM 53.8°F12.1°C 23.9°F-4.5°C 38% 2.0 mph W3.2 kmh W 10.0 mph16.1 kmh 30.00 in1015.9 mb 0.00 in0.0 mm 0.00 in0.0 mm 0.04 in1.0 mm
01:32 PM 53.8°F12.1°C 23.9°F-4.5°C 38% Calm Calm 10.0 mph16.1 kmh 30.01 in1016.3 mb 0.00 in0.0 mm 0.00 in0.0 mm 0.04 in1.0 mm
01:30 PM 53.9°F12.2°C 24.0°F-4.4°C 38% 2.0 mph NW3.2 kmh NW 10.0 mph16.1 kmh 30.01 in1016.3 mb 0.00 in0.0 mm 0.00 in0.0 mm 0.04 in1.0 mm
01:28 PM 53.9°F12.2°C 24.0°F-4.4°C 38% 7.0 mph SW11.3 kmh SW 8.0 mph12.9 kmh 30.01 in1016.3 mb 0.00 in0.0 mm 0.00 in0.0 mm 0.04 in1.0 mm
01:26 PM 54.0°F12.2°C 24.1°F-4.4°C 38% 1.0 mph SW1.6 kmh SW 8.0 mph12.9 kmh 30.00 in1015.9 mb 0.00 in0.0 mm 0.00 in0.0 mm 0.04 in1.0 mm
01:24 PM 54.0°F12.2°C 24.1°F-4.4°C 38% Calm Calm 8.0 mph12.9 kmh 30.00 in1015.9 mb 0.00 in0.0 mm 0.00 in0.0 mm 0.04 in1.0 mm
01:22 PM 54.1°F12.3°C 24.1°F-4.4°C 38% 2.0 mph N3.2 kmh N 8.0 mph12.9 kmh 30.00 in1015.9 mb 0.00 in0.0 mm 0.00 in0.0 mm 0.04 in1.0 mm
01:20 PM 54.1°F12.3°C 24.1°F-4.4°C 38% 1.0 mph WNW1.6 kmh WNW 8.0 mph12.9 kmh 30.00 in1015.9 mb 0.00 in0.0 mm 0.00 in0.0 mm 0.04 in1.0 mm
01:18 PM 54.1°F12.3°C 24.1°F-4.4°C 38% 1.0 mph WNW1.6 kmh WNW 8.0 mph12.9 kmh 30.00 in1015.9 mb 0.00 in0.0 mm 0.00 in0.0 mm 0.04 in1.0 mm
01:16 PM 54.2°F12.3°C 24.2°F-4.3°C 38% 3.0 mph W4.8 kmh W 8.0 mph12.9 kmh 30.00 in1015.9 mb 0.00 in0.0 mm 0.00 in0.0 mm 0.04 in1.0 mm
01:14 PM 54.3°F12.4°C 24.3°F-4.3°C 38% 2.0 mph WSW3.2 kmh WSW 8.0 mph12.9 kmh 30.00 in1015.9 mb 0.00 in0.0 mm 0.00 in0.0 mm 0.04 in1.0 mm
01:12 PM 54.3°F12.4°C 24.3°F-4.3°C 38% 1.0 mph WSW1.6 kmh WSW 8.0 mph12.9 kmh 30.01 in1016.3 mb 0.00 in0.0 mm 0.00 in0.0 mm 0.04 in1.0 mm
01:10 PM 54.3°F12.4°C 24.3°F-4.3°C 38% 2.0 mph W3.2 kmh W 8.0 mph12.9 kmh 30.01 in1016.3 mb 0.00 in0.0 mm 0.00 in0.0 mm 0.04 in1.0 mm
01:08 PM 54.4°F12.4°C 24.4°F-4.2°C 38% 1.0 mph NW1.6 kmh NW 7.0 mph11.3 kmh 30.01 in1016.3 mb 0.00 in0.0 mm 0.00 in0.0 mm 0.04 in1.0 mm
01:06 PM 54.3°F12.4°C 24.3°F-4.3°C 38% 1.0 mph W1.6 kmh W 7.0 mph11.3 kmh 30.01 in1016.3 mb 0.00 in0.0 mm 0.00 in0.0 mm 0.04 in1.0 mm
01:04 PM 54.3°F12.4°C 24.3°F-4.3°C 38% 1.0 mph NNW1.6 kmh NNW 4.0 mph6.4 kmh 30.00 in1015.9 mb 0.00 in0.0 mm 0.00 in0.0 mm 0.04 in1.0 mm
01:02 PM 54.2°F12.3°C 24.2°F-4.3°C 38% 1.0 mph NNW1.6 kmh NNW 4.0 mph6.4 kmh 30.00 in1015.9 mb 0.00 in0.0 mm 0.00 in0.0 mm 0.04 in1.0 mm
01:00 PM 54.1°F12.3°C 24.1°F-4.4°C 38% Calm Calm 7.0 mph11.3 kmh 30.00 in1015.9 mb 0.00 in0.0 mm 0.00 in0.0 mm 0.04 in1.0 mm
12:58 PM 54.1°F12.3°C 24.1°F-4.4°C 38% Calm Calm 7.0 mph11.3 kmh 30.01 in1016.3 mb 0.00 in0.0 mm 0.00 in0.0 mm 0.04 in1.0 mm
12:56 PM 54.1°F12.3°C 24.1°F-4.4°C 38% Calm Calm 7.0 mph11.3 kmh 30.01 in1016.3 mb 0.00 in0.0 mm 0.00 in0.0 mm 0.04 in1.0 mm
12:54 PM 54.2°F12.3°C 24.2°F-4.3°C 38% 1.0 mph SSW1.6 kmh SSW 7.0 mph11.3 kmh 30.01 in1016.3 mb 0.00 in0.0 mm 0.00 in0.0 mm 0.04 in1.0 mm
12:52 PM 54.2°F12.3°C 24.2°F-4.3°C 38% 2.0 mph WNW3.2 kmh WNW 10.0 mph16.1 kmh 30.01 in1016.3 mb 0.00 in0.0 mm 0.00 in0.0 mm 0.04 in1.0 mm
12:50 PM 54.3°F12.4°C 24.3°F-4.3°C 38% 2.0 mph NW3.2 kmh NW 10.0 mph16.1 kmh 30.00 in1015.9 mb 0.00 in0.0 mm 0.00 in0.0 mm 0.04 in1.0 mm
12:48 PM 54.4°F12.4°C 24.4°F-4.2°C 38% 1.0 mph NW1.6 kmh NW 10.0 mph16.1 kmh 30.00 in1015.9 mb 0.00 in0.0 mm 0.00 in0.0 mm 0.04 in1.0 mm
12:46 PM 54.5°F12.5°C 24.5°F-4.2°C 38% 2.0 mph NNW3.2 kmh NNW 10.0 mph16.1 kmh 30.01 in1016.3 mb 0.00 in0.0 mm 0.00 in0.0 mm 0.04 in1.0 mm
12:44 PM 54.6°F12.6°C 24.6°F-4.1°C 38% 2.0 mph NNW3.2 kmh NNW 10.0 mph16.1 kmh 30.01 in1016.3 mb 0.00 in0.0 mm 0.00 in0.0 mm 0.04 in1.0 mm
12:42 PM 54.6°F12.6°C 24.6°F-4.1°C 38% 1.0 mph N1.6 kmh N 10.0 mph16.1 kmh 30.00 in1015.9 mb 0.00 in0.0 mm 0.00 in0.0 mm 0.04 in1.0 mm
12:40 PM 54.7°F12.6°C 24.7°F-4.1°C 38% 3.0 mph WSW4.8 kmh WSW 10.0 mph16.1 kmh 30.00 in1015.9 mb 0.00 in0.0 mm 0.00 in0.0 mm 0.04 in1.0 mm
12:38 PM 54.8°F12.7°C 24.8°F-4.0°C 38% 2.0 mph NW3.2 kmh NW 10.0 mph16.1 kmh 30.00 in1015.9 mb 0.00 in0.0 mm 0.00 in0.0 mm 0.04 in1.0 mm
12:36 PM 55.0°F12.8°C 24.9°F-3.9°C 38% 3.0 mph NNW4.8 kmh NNW 10.0 mph16.1 kmh 29.99 in1015.6 mb 0.00 in0.0 mm 0.00 in0.0 mm 0.04 in1.0 mm
12:34 PM 55.1°F12.8°C 25.0°F-3.9°C 38% 2.0 mph WSW3.2 kmh WSW 10.0 mph16.1 kmh 30.00 in1015.9 mb 0.00 in0.0 mm 0.00 in0.0 mm 0.04 in1.0 mm
12:32 PM 55.2°F12.9°C 25.1°F-3.8°C 38% 1.0 mph N1.6 kmh N 6.0 mph9.7 kmh 30.00 in1015.9 mb 0.00 in0.0 mm 0.00 in0.0 mm 0.04 in1.0 mm
12:30 PM 55.3°F12.9°C 25.2°F-3.8°C 38% 2.0 mph NE3.2 kmh NE 6.0 mph9.7 kmh 29.99 in1015.6 mb 0.00 in0.0 mm 0.00 in0.0 mm 0.04 in1.0 mm
12:28 PM 55.4°F13.0°C 25.3°F-3.7°C 38% 2.0 mph WNW3.2 kmh WNW 6.0 mph9.7 kmh 29.99 in1015.6 mb 0.00 in0.0 mm 0.00 in0.0 mm 0.04 in1.0 mm
12:26 PM 55.5°F13.1°C 25.4°F-3.7°C 38% 2.0 mph NW3.2 kmh NW 11.0 mph17.7 kmh 29.99 in1015.6 mb 0.00 in0.0 mm 0.00 in0.0 mm 0.04 in1.0 mm
12:24 PM 55.6°F13.1°C 25.5°F-3.6°C 38% 1.0 mph NW1.6 kmh NW 11.0 mph17.7 kmh 29.99 in1015.6 mb 0.00 in0.0 mm 0.00 in0.0 mm 0.04 in1.0 mm
12:22 PM 55.8°F13.2°C 25.6°F-3.6°C 38% 4.0 mph W6.4 kmh W 11.0 mph17.7 kmh 29.99 in1015.6 mb 0.00 in0.0 mm 0.00 in0.0 mm 0.04 in1.0 mm
12:20 PM 55.9°F13.3°C 25.7°F-3.5°C 38% 1.0 mph W1.6 kmh W 11.0 mph17.7 kmh 29.99 in1015.6 mb 0.00 in0.0 mm 0.00 in0.0 mm 0.04 in1.0 mm
12:18 PM 56.0°F13.3°C 25.8°F-3.4°C 38% Calm Calm 11.0 mph17.7 kmh 29.99 in1015.6 mb 0.00 in0.0 mm 0.00 in0.0 mm 0.04 in1.0 mm
12:16 PM 56.0°F13.3°C 25.8°F-3.4°C 38% Calm Calm 11.0 mph17.7 kmh 29.99 in1015.6 mb 0.00 in0.0 mm 0.00 in0.0 mm 0.04 in1.0 mm
12:14 PM 56.0°F13.3°C 25.8°F-3.4°C 38% Calm Calm 11.0 mph17.7 kmh 29.99 in1015.6 mb 0.00 in0.0 mm 0.00 in0.0 mm 0.04 in1.0 mm
12:12 PM 56.1°F13.4°C 25.9°F-3.4°C 38% 1.0 mph SE1.6 kmh SE 11.0 mph17.7 kmh 29.99 in1015.6 mb 0.00 in0.0 mm 0.00 in0.0 mm 0.04 in1.0 mm
12:10 PM 56.2°F13.4°C 26.0°F-3.3°C 38% 1.0 mph N1.6 kmh N 11.0 mph17.7 kmh 29.99 in1015.6 mb 0.00 in0.0 mm 0.00 in0.0 mm 0.04 in1.0 mm
12:08 PM 56.3°F13.5°C 26.1°F-3.3°C 38% 2.0 mph NNW3.2 kmh NNW 11.0 mph17.7 kmh 29.99 in1015.6 mb 0.00 in0.0 mm 0.00 in0.0 mm 0.04 in1.0 mm
12:06 PM 56.4°F13.6°C 26.1°F-3.3°C 38% 2.0 mph SSE3.2 kmh SSE 8.0 mph12.9 kmh 29.99 in1015.6 mb 0.00 in0.0 mm 0.00 in0.0 mm 0.04 in1.0 mm
12:04 PM 56.5°F13.6°C 26.2°F-3.2°C 38% 1.0 mph WNW1.6 kmh WNW 8.0 mph12.9 kmh 30.00 in1015.9 mb 0.00 in0.0 mm 0.00 in0.0 mm 0.04 in1.0 mm
12:02 PM 56.5°F13.6°C 26.2°F-3.2°C 38% 1.0 mph W1.6 kmh W 8.0 mph12.9 kmh 29.99 in1015.6 mb 0.00 in0.0 mm 0.00 in0.0 mm 0.04 in1.0 mm
12:00 PM 56.6°F13.7°C 26.3°F-3.2°C 38% 1.0 mph W1.6 kmh W 8.0 mph12.9 kmh 29.99 in1015.6 mb 0.00 in0.0 mm 0.00 in0.0 mm 0.04 in1.0 mm
11:58 AM 56.6°F13.7°C 26.3°F-3.2°C 38% Calm Calm 8.0 mph12.9 kmh 29.99 in1015.6 mb 0.00 in0.0 mm 0.00 in0.0 mm 0.04 in1.0 mm
11:56 AM 56.7°F13.7°C 26.4°F-3.1°C 38% 1.0 mph WNW1.6 kmh WNW 8.0 mph12.9 kmh 29.99 in1015.6 mb 0.00 in0.0 mm 0.00 in0.0 mm 0.04 in1.0 mm
11:54 AM 56.8°F13.8°C 26.5°F-3.1°C 38% 2.0 mph WSW3.2 kmh WSW 8.0 mph12.9 kmh 29.99 in1015.6 mb 0.00 in0.0 mm 0.00 in0.0 mm 0.04 in1.0 mm
11:52 AM 56.8°F13.8°C 26.5°F-3.1°C 38% 3.0 mph WSW4.8 kmh WSW 9.0 mph14.5 kmh 29.98 in1015.2 mb 0.00 in0.0 mm 0.00 in0.0 mm 0.04 in1.0 mm
11:50 AM 56.8°F13.8°C 26.5°F-3.1°C 38% 1.0 mph S1.6 kmh S 9.0 mph14.5 kmh 29.98 in1015.2 mb 0.00 in0.0 mm 0.00 in0.0 mm 0.04 in1.0 mm
11:48 AM 56.9°F13.8°C 26.6°F-3.0°C 38% 4.0 mph S6.4 kmh S 9.0 mph14.5 kmh 29.98 in1015.2 mb 0.00 in0.0 mm 0.00 in0.0 mm 0.04 in1.0 mm
11:46 AM 56.9°F13.8°C 26.6°F-3.0°C 38% 4.0 mph S6.4 kmh S 9.0 mph14.5 kmh 29.98 in1015.2 mb 0.00 in0.0 mm 0.00 in0.0 mm 0.04 in1.0 mm
11:44 AM 56.9°F13.8°C 26.6°F-3.0°C 38% 1.0 mph W1.6 kmh W 9.0 mph14.5 kmh 29.98 in1015.2 mb 0.00 in0.0 mm 0.00 in0.0 mm 0.04 in1.0 mm
11:42 AM 57.0°F13.9°C 26.7°F-2.9°C 38% 2.0 mph WSW3.2 kmh WSW 10.0 mph16.1 kmh 29.98 in1015.2 mb 0.00 in0.0 mm 0.00 in0.0 mm 0.04 in1.0 mm
11:40 AM 57.0°F13.9°C 26.7°F-2.9°C 38% Calm Calm 10.0 mph16.1 kmh 29.98 in1015.2 mb 0.00 in0.0 mm 0.00 in0.0 mm 0.04 in1.0 mm
11:38 AM 57.1°F13.9°C 26.8°F-2.9°C 38% 4.0 mph S6.4 kmh S 10.0 mph16.1 kmh 29.98 in1015.2 mb 0.00 in0.0 mm 0.00 in0.0 mm 0.04 in1.0 mm
11:36 AM 57.1°F13.9°C 26.8°F-2.9°C 38% 1.0 mph WNW1.6 kmh WNW 10.0 mph16.1 kmh 29.97 in1014.9 mb 0.00 in0.0 mm 0.00 in0.0 mm 0.04 in1.0 mm
11:34 AM 57.2°F14.0°C 26.8°F-2.9°C 38% 1.0 mph SSW1.6 kmh SSW 10.0 mph16.1 kmh 29.97 in1014.9 mb 0.00 in0.0 mm 0.00 in0.0 mm 0.04 in1.0 mm
11:32 AM 57.2°F14.0°C 26.8°F-2.9°C 38% 2.0 mph WNW3.2 kmh WNW 10.0 mph16.1 kmh 29.97 in1014.9 mb 0.00 in0.0 mm 0.00 in0.0 mm 0.04 in1.0 mm
11:30 AM 57.2°F14.0°C 26.8°F-2.9°C 38% Calm Calm 10.0 mph16.1 kmh 29.97 in1014.9 mb 0.00 in0.0 mm 0.00 in0.0 mm 0.04 in1.0 mm
11:28 AM 57.3°F14.1°C 26.9°F-2.8°C 38% 3.0 mph N4.8 kmh N 10.0 mph16.1 kmh 29.97 in1014.9 mb 0.00 in0.0 mm 0.00 in0.0 mm 0.04 in1.0 mm
11:26 AM 57.4°F14.1°C 27.0°F-2.8°C 38% 1.0 mph WNW1.6 kmh WNW 10.0 mph16.1 kmh 29.97 in1014.9 mb 0.00 in0.0 mm 0.00 in0.0 mm 0.04 in1.0 mm
11:24 AM 57.5°F14.2°C 27.1°F-2.7°C 38% 2.0 mph W3.2 kmh W 10.0 mph16.1 kmh 29.98 in1015.2 mb 0.00 in0.0 mm 0.00 in0.0 mm 0.04 in1.0 mm
11:22 AM 57.6°F14.2°C 27.2°F-2.7°C 38% 3.0 mph WNW4.8 kmh WNW 7.0 mph11.3 kmh 29.98 in1015.2 mb 0.00 in0.0 mm 0.00 in0.0 mm 0.04 in1.0 mm
11:20 AM 57.6°F14.2°C 27.2°F-2.7°C 38% Calm Calm 7.0 mph11.3 kmh 29.98 in1015.2 mb 0.00 in0.0 mm 0.00 in0.0 mm 0.04 in1.0 mm
11:18 AM 57.7°F14.3°C 27.3°F-2.6°C 38% 1.0 mph W1.6 kmh W 7.0 mph11.3 kmh 29.97 in1014.9 mb 0.00 in0.0 mm 0.00 in0.0 mm 0.04 in1.0 mm
11:16 AM 57.7°F14.3°C 27.3°F-2.6°C 38% 4.0 mph WSW6.4 kmh WSW 7.0 mph11.3 kmh 29.97 in1014.9 mb 0.00 in0.0 mm 0.00 in0.0 mm 0.04 in1.0 mm
11:14 AM 57.7°F14.3°C 27.3°F-2.6°C 38% Calm Calm 7.0 mph11.3 kmh 29.97 in1014.9 mb 0.00 in0.0 mm 0.00 in0.0 mm 0.04 in1.0 mm
11:12 AM 57.7°F14.3°C 27.3°F-2.6°C 38% Calm Calm 7.0 mph11.3 kmh 29.97 in1014.9 mb 0.00 in0.0 mm 0.00 in0.0 mm 0.04 in1.0 mm
11:10 AM 57.8°F14.3°C 27.4°F-2.6°C 38% 3.0 mph W4.8 kmh W 11.0 mph17.7 kmh 29.97 in1014.9 mb 0.00 in0.0 mm 0.00 in0.0 mm 0.04 in1.0 mm
11:08 AM 57.8°F14.3°C 27.4°F-2.6°C 38% 3.0 mph SW4.8 kmh SW 11.0 mph17.7 kmh 29.97 in1014.9 mb 0.00 in0.0 mm 0.00 in0.0 mm 0.04 in1.0 mm
11:06 AM 57.8°F14.3°C 27.4°F-2.6°C 38% Calm Calm 11.0 mph17.7 kmh 29.97 in1014.9 mb 0.00 in0.0 mm 0.00 in0.0 mm 0.04 in1.0 mm
11:04 AM 57.8°F14.3°C 27.4°F-2.6°C 38% Calm Calm 11.0 mph17.7 kmh 29.97 in1014.9 mb 0.00 in0.0 mm 0.00 in0.0 mm 0.04 in1.0 mm
11:02 AM 57.9°F14.4°C 27.5°F-2.5°C 38% 2.0 mph W3.2 kmh W 11.0 mph17.7 kmh 29.97 in1014.9 mb 0.00 in0.0 mm 0.00 in0.0 mm 0.04 in1.0 mm
11:00 AM 57.9°F14.4°C 27.5°F-2.5°C 38% 3.0 mph WNW4.8 kmh WNW 12.0 mph19.3 kmh 29.97 in1014.9 mb 0.00 in0.0 mm 0.00 in0.0 mm 0.04 in1.0 mm
10:58 AM 58.0°F14.4°C 27.5°F-2.5°C 38% Calm Calm 12.0 mph19.3 kmh 29.97 in1014.9 mb 0.00 in0.0 mm 0.00 in0.0 mm 0.04 in1.0 mm
10:56 AM 58.1°F14.5°C 27.6°F-2.4°C 38% 1.0 mph SW1.6 kmh SW 12.0 mph19.3 kmh 29.97 in1014.9 mb 0.00 in0.0 mm 0.00 in0.0 mm 0.04 in1.0 mm
10:54 AM 58.2°F14.6°C 27.7°F-2.4°C 38% 2.0 mph SW3.2 kmh SW 12.0 mph19.3 kmh 29.96 in1014.6 mb 0.00 in0.0 mm 0.00 in0.0 mm 0.04 in1.0 mm
10:52 AM 58.2°F14.6°C 27.7°F-2.4°C 38% Calm Calm 12.0 mph19.3 kmh 29.96 in1014.6 mb 0.00 in0.0 mm 0.00 in0.0 mm 0.04 in1.0 mm
10:50 AM 58.2°F14.6°C 27.7°F-2.4°C 38% Calm Calm 12.0 mph19.3 kmh 29.96 in1014.6 mb 0.00 in0.0 mm 0.00 in0.0 mm 0.04 in1.0 mm
10:48 AM 58.2°F14.6°C 27.7°F-2.4°C 38% 2.0 mph NW3.2 kmh NW 12.0 mph19.3 kmh 29.96 in1014.6 mb 0.00 in0.0 mm 0.00 in0.0 mm 0.04 in1.0 mm
10:46 AM 58.3°F14.6°C 27.8°F-2.3°C 38% 4.0 mph SW6.4 kmh SW 12.0 mph19.3 kmh 29.96 in1014.6 mb 0.00 in0.0 mm 0.00 in0.0 mm 0.04 in1.0 mm
10:44 AM 58.3°F14.6°C 27.8°F-2.3°C 38% Calm Calm 12.0 mph19.3 kmh 29.96 in1014.6 mb 0.00 in0.0 mm 0.00 in0.0 mm 0.04 in1.0 mm
10:42 AM 58.4°F14.7°C 27.9°F-2.3°C 38% 3.0 mph W4.8 kmh W 12.0 mph19.3 kmh 29.96 in1014.6 mb 0.00 in0.0 mm 0.00 in0.0 mm 0.04 in1.0 mm
10:40 AM 58.4°F14.7°C 27.9°F-2.3°C 38% 3.0 mph SW4.8 kmh SW 11.0 mph17.7 kmh 29.96 in1014.6 mb 0.00 in0.0 mm 0.00 in0.0 mm 0.04 in1.0 mm
10:38 AM 58.5°F14.7°C 28.0°F-2.2°C 38% 2.0 mph SW3.2 kmh SW 11.0 mph17.7 kmh 29.96 in1014.6 mb 0.00 in0.0 mm 0.00 in0.0 mm 0.04 in1.0 mm
10:36 AM 58.6°F14.8°C 28.1°F-2.2°C 38% 3.0 mph SW4.8 kmh SW 9.0 mph14.5 kmh 29.96 in1014.6 mb 0.00 in0.0 mm 0.00 in0.0 mm 0.04 in1.0 mm
10:34 AM 58.6°F14.8°C 28.1°F-2.2°C 38% 2.0 mph S3.2 kmh S 7.0 mph11.3 kmh 29.96 in1014.6 mb 0.00 in0.0 mm 0.00 in0.0 mm 0.04 in1.0 mm
10:32 AM 58.7°F14.8°C 28.1°F-2.2°C 38% Calm Calm 7.0 mph11.3 kmh 29.96 in1014.6 mb 0.00 in0.0 mm 0.00 in0.0 mm 0.04 in1.0 mm
10:30 AM 58.7°F14.8°C 28.1°F-2.2°C 38% 1.0 mph WSW1.6 kmh WSW 9.0 mph14.5 kmh 29.96 in1014.6 mb 0.00 in0.0 mm 0.00 in0.0 mm 0.04 in1.0 mm
10:28 AM 58.7°F14.8°C 28.1°F-2.2°C 38% 2.0 mph W3.2 kmh W 9.0 mph14.5 kmh 29.96 in1014.6 mb 0.00 in0.0 mm 0.00 in0.0 mm 0.04 in1.0 mm
10:26 AM 58.7°F14.8°C 28.1°F-2.2°C 38% 2.0 mph W3.2 kmh W 9.0 mph14.5 kmh 29.96 in1014.6 mb 0.00 in0.0 mm 0.00 in0.0 mm 0.04 in1.0 mm
10:24 AM 58.7°F14.8°C 28.1°F-2.2°C 38% Calm Calm 9.0 mph14.5 kmh 29.96 in1014.6 mb 0.00 in0.0 mm 0.00 in0.0 mm 0.04 in1.0 mm
10:22 AM 58.8°F14.9°C 28.2°F-2.1°C 38% 1.0 mph W1.6 kmh W 9.0 mph14.5 kmh 29.96 in1014.6 mb 0.00 in0.0 mm 0.00 in0.0 mm 0.04 in1.0 mm
10:20 AM 58.8°F14.9°C 28.2°F-2.1°C 38% 1.0 mph S1.6 kmh S 10.0 mph16.1 kmh 29.96 in1014.6 mb 0.00 in0.0 mm 0.00 in0.0 mm 0.04 in1.0 mm
10:18 AM 58.8°F14.9°C 28.2°F-2.1°C 38% Calm Calm 10.0 mph16.1 kmh 29.96 in1014.6 mb 0.00 in0.0 mm 0.00 in0.0 mm 0.04 in1.0 mm
10:16 AM 58.9°F14.9°C 28.3°F-2.1°C 38% 2.0 mph SW3.2 kmh SW 10.0 mph16.1 kmh 29.96 in1014.6 mb 0.00 in0.0 mm 0.00 in0.0 mm 0.04 in1.0 mm
10:14 AM 58.9°F14.9°C 28.3°F-2.1°C 38% 1.0 mph NE1.6 kmh NE 10.0 mph16.1 kmh 29.96 in1014.6 mb 0.00 in0.0 mm 0.00 in0.0 mm 0.04 in1.0 mm
10:12 AM 58.9°F14.9°C 28.3°F-2.1°C 38% 2.0 mph NW3.2 kmh NW 10.0 mph16.1 kmh 29.96 in1014.6 mb 0.00 in0.0 mm 0.00 in0.0 mm 0.04 in1.0 mm
10:10 AM 58.9°F14.9°C 28.3°F-2.1°C 38% Calm Calm 10.0 mph16.1 kmh 29.95 in1014.2 mb 0.00 in0.0 mm 0.00 in0.0 mm 0.04 in1.0 mm
10:08 AM 58.9°F14.9°C 28.3°F-2.1°C 38% 3.0 mph S4.8 kmh S 10.0 mph16.1 kmh 29.95 in1014.2 mb 0.00 in0.0 mm 0.00 in0.0 mm 0.04 in1.0 mm
10:06 AM 59.0°F15.0°C 28.4°F-2.0°C 38% 2.0 mph WNW3.2 kmh WNW 10.0 mph16.1 kmh 29.95 in1014.2 mb 0.00 in0.0 mm 0.00 in0.0 mm 0.04 in1.0 mm
10:04 AM 59.0°F15.0°C 28.4°F-2.0°C 38% 1.0 mph WSW1.6 kmh WSW 10.0 mph16.1 kmh 29.96 in1014.6 mb 0.00 in0.0 mm 0.00 in0.0 mm 0.04 in1.0 mm
10:02 AM 59.1°F15.1°C 28.5°F-1.9°C 38% 3.0 mph WSW4.8 kmh WSW 10.0 mph16.1 kmh 29.96 in1014.6 mb 0.00 in0.0 mm 0.00 in0.0 mm 0.04 in1.0 mm
10:00 AM 59.2°F15.1°C 28.6°F-1.9°C 38% 6.0 mph S9.7 kmh S 10.0 mph16.1 kmh 29.96 in1014.6 mb 0.00 in0.0 mm 0.00 in0.0 mm 0.04 in1.0 mm
09:58 AM 59.3°F15.2°C 28.7°F-1.8°C 38% 3.0 mph W4.8 kmh W 10.0 mph16.1 kmh 29.96 in1014.6 mb 0.00 in0.0 mm 0.00 in0.0 mm 0.04 in1.0 mm
09:56 AM 59.4°F15.2°C 28.8°F-1.8°C 38% 2.0 mph WNW3.2 kmh WNW 10.0 mph16.1 kmh 29.96 in1014.6 mb 0.00 in0.0 mm 0.00 in0.0 mm 0.04 in1.0 mm
09:54 AM 59.5°F15.3°C 28.8°F-1.8°C 38% 6.0 mph S9.7 kmh S 10.0 mph16.1 kmh 29.95 in1014.2 mb 0.00 in0.0 mm 0.00 in0.0 mm 0.04 in1.0 mm
09:52 AM 59.6°F15.3°C 28.9°F-1.7°C 38% 2.0 mph NW3.2 kmh NW 10.0 mph16.1 kmh 29.95 in1014.2 mb 0.00 in0.0 mm 0.00 in0.0 mm 0.04 in1.0 mm
09:50 AM 59.6°F15.3°C 28.9°F-1.7°C 38% 1.0 mph ENE1.6 kmh ENE 10.0 mph16.1 kmh 29.95 in1014.2 mb 0.00 in0.0 mm 0.00 in0.0 mm 0.04 in1.0 mm
09:48 AM 59.6°F15.3°C 28.9°F-1.7°C 38% Calm Calm -- 29.95 in1014.2 mb 0.00 in0.0 mm 0.00 in0.0 mm 0.04 in1.0 mm
09:46 AM 59.6°F15.3°C 28.9°F-1.7°C 38% Calm Calm 8.0 mph12.9 kmh 29.95 in1014.2 mb 0.00 in0.0 mm 0.00 in0.0 mm 0.04 in1.0 mm
09:44 AM 59.7°F15.4°C 29.0°F-1.7°C 38% 3.0 mph WSW4.8 kmh WSW 8.0 mph12.9 kmh 29.95 in1014.2 mb 0.00 in0.0 mm 0.00 in0.0 mm 0.04 in1.0 mm
09:42 AM 59.7°F15.4°C 29.0°F-1.7°C 38% Calm Calm 8.0 mph12.9 kmh 29.95 in1014.2 mb 0.00 in0.0 mm 0.00 in0.0 mm 0.04 in1.0 mm
09:40 AM 59.7°F15.4°C 29.0°F-1.7°C 38% Calm Calm 8.0 mph12.9 kmh 29.95 in1014.2 mb 0.00 in0.0 mm 0.00 in0.0 mm 0.04 in1.0 mm
09:38 AM 59.7°F15.4°C 29.0°F-1.7°C 38% 2.0 mph W3.2 kmh W 8.0 mph12.9 kmh 29.95 in1014.2 mb 0.00 in0.0 mm 0.00 in0.0 mm 0.04 in1.0 mm
09:36 AM 59.7°F15.4°C 29.0°F-1.7°C 38% Calm Calm 13.0 mph20.9 kmh 29.95 in1014.2 mb 0.00 in0.0 mm 0.00 in0.0 mm 0.04 in1.0 mm
09:34 AM 59.7°F15.4°C 29.0°F-1.7°C 38% 2.0 mph SSW3.2 kmh SSW 13.0 mph20.9 kmh 29.95 in1014.2 mb 0.00 in0.0 mm 0.00 in0.0 mm 0.04 in1.0 mm
09:32 AM 59.7°F15.4°C 29.0°F-1.7°C 38% Calm Calm 13.0 mph20.9 kmh 29.95 in1014.2 mb 0.00 in0.0 mm 0.00 in0.0 mm 0.04 in1.0 mm
09:30 AM 59.7°F15.4°C 29.0°F-1.7°C 38% 2.0 mph 3.2 kmh 13.0 mph20.9 kmh 29.95 in1014.2 mb 0.00 in0.0 mm 0.00 in0.0 mm 0.04 in1.0 mm
09:28 AM 59.7°F15.4°C 29.0°F-1.7°C 38% 4.0 mph W6.4 kmh W 13.0 mph20.9 kmh 29.95 in1014.2 mb 0.00 in0.0 mm 0.00 in0.0 mm 0.04 in1.0 mm
09:26 AM 59.6°F15.3°C 28.9°F-1.7°C 38% 1.0 mph WSW1.6 kmh WSW 11.0 mph17.7 kmh 29.95 in1014.2 mb 0.00 in0.0 mm 0.00 in0.0 mm 0.04 in1.0 mm
09:24 AM 59.6°F15.3°C 28.9°F-1.7°C 38% 2.0 mph W3.2 kmh W 10.0 mph16.1 kmh 29.95 in1014.2 mb 0.00 in0.0 mm 0.00 in0.0 mm 0.04 in1.0 mm
09:22 AM 59.6°F15.3°C 28.9°F-1.7°C 38% 3.0 mph NW4.8 kmh NW 8.0 mph12.9 kmh 29.95 in1014.2 mb 0.00 in0.0 mm 0.00 in0.0 mm 0.04 in1.0 mm
09:20 AM 59.6°F15.3°C 28.9°F-1.7°C 38% 1.0 mph W1.6 kmh W 8.0 mph12.9 kmh 29.95 in1014.2 mb 0.00 in0.0 mm 0.00 in0.0 mm 0.04 in1.0 mm
09:18 AM 59.6°F15.3°C 28.9°F-1.7°C 38% 1.0 mph SW1.6 kmh SW 8.0 mph12.9 kmh 29.95 in1014.2 mb 0.00 in0.0 mm 0.00 in0.0 mm 0.04 in1.0 mm
09:16 AM 59.6°F15.3°C 28.9°F-1.7°C 38% Calm Calm 8.0 mph12.9 kmh 29.95 in1014.2 mb 0.00 in0.0 mm 0.00 in0.0 mm 0.04 in1.0 mm
09:14 AM 59.6°F15.3°C 28.9°F-1.7°C 38% 1.0 mph SW1.6 kmh SW 8.0 mph12.9 kmh 29.95 in1014.2 mb 0.00 in0.0 mm 0.00 in0.0 mm 0.04 in1.0 mm
09:12 AM 59.5°F15.3°C 28.8°F-1.8°C 38% Calm Calm 8.0 mph12.9 kmh 29.95 in1014.2 mb 0.00 in0.0 mm 0.00 in0.0 mm 0.04 in1.0 mm
09:10 AM 59.5°F15.3°C 28.8°F-1.8°C 38% Calm Calm 8.0 mph12.9 kmh 29.95 in1014.2 mb 0.00 in0.0 mm 0.00 in0.0 mm 0.04 in1.0 mm
09:08 AM 59.5°F15.3°C 28.8°F-1.8°C 38% 2.0 mph SW3.2 kmh SW 8.0 mph12.9 kmh 29.95 in1014.2 mb 0.00 in0.0 mm 0.00 in0.0 mm 0.04 in1.0 mm
09:06 AM 59.5°F15.3°C 28.8°F-1.8°C 38% 5.0 mph SSW8.0 kmh SSW 8.0 mph12.9 kmh 29.95 in1014.2 mb 0.00 in0.0 mm 0.00 in0.0 mm 0.04 in1.0 mm
09:04 AM 59.5°F15.3°C 28.8°F-1.8°C 38% 1.0 mph WNW1.6 kmh WNW 7.0 mph11.3 kmh 29.95 in1014.2 mb 0.00 in0.0 mm 0.00 in0.0 mm 0.04 in1.0 mm
09:02 AM 59.5°F15.3°C 28.8°F-1.8°C 38% 1.0 mph SSW1.6 kmh SSW 7.0 mph11.3 kmh 29.95 in1014.2 mb 0.00 in0.0 mm 0.00 in0.0 mm 0.04 in1.0 mm
09:00 AM 59.5°F15.3°C 28.8°F-1.8°C 38% 2.0 mph W3.2 kmh W 7.0 mph11.3 kmh 29.95 in1014.2 mb 0.00 in0.0 mm 0.00 in0.0 mm 0.04 in1.0 mm
08:58 AM 59.4°F15.2°C 28.8°F-1.8°C 38% Calm Calm 7.0 mph11.3 kmh 29.95 in1014.2 mb 0.00 in0.0 mm 0.00 in0.0 mm 0.04 in1.0 mm
08:56 AM 59.4°F15.2°C 28.8°F-1.8°C 38% Calm Calm 7.0 mph11.3 kmh 29.94 in1013.9 mb 0.00 in0.0 mm 0.00 in0.0 mm 0.04 in1.0 mm
08:54 AM 59.4°F15.2°C 28.8°F-1.8°C 38% Calm Calm 7.0 mph11.3 kmh 29.94 in1013.9 mb 0.00 in0.0 mm 0.00 in0.0 mm 0.04 in1.0 mm
08:52 AM 59.3°F15.2°C 28.7°F-1.8°C 38% 4.0 mph W6.4 kmh W 11.0 mph17.7 kmh 29.94 in1013.9 mb 0.00 in0.0 mm 0.00 in0.0 mm 0.04 in1.0 mm
08:50 AM 59.3°F15.2°C 28.7°F-1.8°C 38% 1.0 mph NW1.6 kmh NW 11.0 mph17.7 kmh 29.94 in1013.9 mb 0.00 in0.0 mm 0.00 in0.0 mm 0.04 in1.0 mm
08:48 AM 59.2°F15.1°C 28.6°F-1.9°C 38% 1.0 mph NW1.6 kmh NW 11.0 mph17.7 kmh 29.94 in1013.9 mb 0.00 in0.0 mm 0.00 in0.0 mm 0.04 in1.0 mm
08:46 AM 59.2°F15.1°C 28.6°F-1.9°C 38% 5.0 mph S8.0 kmh S 11.0 mph17.7 kmh 29.94 in1013.9 mb 0.00 in0.0 mm 0.00 in0.0 mm 0.04 in1.0 mm
08:44 AM 59.2°F15.1°C 28.6°F-1.9°C 38% 3.0 mph WSW4.8 kmh WSW 11.0 mph17.7 kmh 29.94 in1013.9 mb 0.00 in0.0 mm 0.00 in0.0 mm 0.04 in1.0 mm
08:42 AM 59.1°F15.1°C 28.5°F-1.9°C 38% 2.0 mph WSW3.2 kmh WSW 11.0 mph17.7 kmh 29.94 in1013.9 mb 0.00 in0.0 mm 0.00 in0.0 mm 0.04 in1.0 mm
08:40 AM 59.1°F15.1°C 28.5°F-1.9°C 38% Calm Calm 11.0 mph17.7 kmh 29.93 in1013.5 mb 0.00 in0.0 mm 0.00 in0.0 mm 0.04 in1.0 mm
08:38 AM 59.1°F15.1°C 28.5°F-1.9°C 38% 1.0 mph WSW1.6 kmh WSW 11.0 mph17.7 kmh 29.94 in1013.9 mb 0.00 in0.0 mm 0.00 in0.0 mm 0.04 in1.0 mm
08:36 AM 59.0°F15.0°C 28.4°F-2.0°C 38% Calm Calm 11.0 mph17.7 kmh 29.93 in1013.5 mb 0.00 in0.0 mm 0.00 in0.0 mm 0.04 in1.0 mm
08:34 AM 59.0°F15.0°C 28.4°F-2.0°C 38% Calm Calm 11.0 mph17.7 kmh 29.94 in1013.9 mb 0.00 in0.0 mm 0.00 in0.0 mm 0.04 in1.0 mm
08:32 AM 59.0°F15.0°C 28.4°F-2.0°C 38% Calm Calm 8.0 mph12.9 kmh 29.93 in1013.5 mb 0.00 in0.0 mm 0.00 in0.0 mm 0.04 in1.0 mm
08:30 AM 58.9°F14.9°C 28.3°F-2.1°C 38% 2.0 mph WSW3.2 kmh WSW 8.0 mph12.9 kmh 29.93 in1013.5 mb 0.00 in0.0 mm 0.00 in0.0 mm 0.04 in1.0 mm
08:28 AM 58.9°F14.9°C 28.3°F-2.1°C 38% 2.0 mph W3.2 kmh W 8.0 mph12.9 kmh 29.93 in1013.5 mb 0.00 in0.0 mm 0.00 in0.0 mm 0.04 in1.0 mm
08:26 AM 58.9°F14.9°C 28.3°F-2.1°C 38% Calm Calm 8.0 mph12.9 kmh 29.93 in1013.5 mb 0.00 in0.0 mm 0.00 in0.0 mm 0.04 in1.0 mm
08:24 AM 58.8°F14.9°C 28.2°F-2.1°C 38% 2.0 mph WSW3.2 kmh WSW 8.0 mph12.9 kmh 29.92 in1013.2 mb 0.00 in0.0 mm 0.00 in0.0 mm 0.04 in1.0 mm
08:22 AM 58.8°F14.9°C 28.2°F-2.1°C 38% Calm Calm 8.0 mph12.9 kmh 29.92 in1013.2 mb 0.00 in0.0 mm 0.00 in0.0 mm 0.04 in1.0 mm
08:20 AM 58.8°F14.9°C 28.2°F-2.1°C 38% 2.0 mph WSW3.2 kmh WSW 8.0 mph12.9 kmh 29.92 in1013.2 mb 0.00 in0.0 mm 0.00 in0.0 mm 0.04 in1.0 mm
08:18 AM 58.8°F14.9°C 28.2°F-2.1°C 38% Calm Calm 8.0 mph12.9 kmh 29.93 in1013.5 mb 0.00 in0.0 mm 0.00 in0.0 mm 0.04 in1.0 mm
08:16 AM 58.8°F14.9°C 28.2°F-2.1°C 38% 2.0 mph W3.2 kmh W 8.0 mph12.9 kmh 29.93 in1013.5 mb 0.00 in0.0 mm 0.00 in0.0 mm 0.04 in1.0 mm
08:14 AM 58.8°F14.9°C 28.2°F-2.1°C 38% 1.0 mph WNW1.6 kmh WNW 8.0 mph12.9 kmh 29.92 in1013.2 mb 0.00 in0.0 mm 0.00 in0.0 mm 0.04 in1.0 mm
08:12 AM 58.7°F14.8°C 28.1°F-2.2°C 38% 2.0 mph WNW3.2 kmh WNW 6.0 mph9.7 kmh 29.93 in1013.5 mb 0.00 in0.0 mm 0.00 in0.0 mm 0.04 in1.0 mm
08:10 AM 58.7°F14.8°C 28.1°F-2.2°C 38% Calm Calm 6.0 mph9.7 kmh 29.93 in1013.5 mb 0.00 in0.0 mm 0.00 in0.0 mm 0.04 in1.0 mm
08:08 AM 58.7°F14.8°C 28.1°F-2.2°C 38% 2.0 mph SW3.2 kmh SW 6.0 mph9.7 kmh 29.93 in1013.5 mb 0.00 in0.0 mm 0.00 in0.0 mm 0.04 in1.0 mm
08:06 AM 58.7°F14.8°C 28.1°F-2.2°C 38% Calm Calm 6.0 mph9.7 kmh 29.93 in1013.5 mb 0.00 in0.0 mm 0.00 in0.0 mm 0.04 in1.0 mm
08:04 AM 58.7°F14.8°C 28.1°F-2.2°C 38% 2.0 mph W3.2 kmh W 6.0 mph9.7 kmh 29.93 in1013.5 mb 0.00 in0.0 mm 0.00 in0.0 mm 0.04 in1.0 mm
08:02 AM 58.7°F14.8°C 28.1°F-2.2°C 38% 2.0 mph WSW3.2 kmh WSW 7.0 mph11.3 kmh 29.93 in1013.5 mb 0.00 in0.0 mm 0.00 in0.0 mm 0.04 in1.0 mm
08:00 AM 58.7°F14.8°C 28.1°F-2.2°C 38% 1.0 mph WSW1.6 kmh WSW 7.0 mph11.3 kmh 29.93 in1013.5 mb 0.00 in0.0 mm 0.00 in0.0 mm 0.04 in1.0 mm
07:58 AM 58.6°F14.8°C 28.1°F-2.2°C 38% 1.0 mph WSW1.6 kmh WSW 7.0 mph11.3 kmh 29.93 in1013.5 mb 0.00 in0.0 mm 0.00 in0.0 mm 0.04 in1.0 mm
07:56 AM 58.6°F14.8°C 28.1°F-2.2°C 38% 4.0 mph WSW6.4 kmh WSW 7.0 mph11.3 kmh 29.93 in1013.5 mb 0.00 in0.0 mm 0.00 in0.0 mm 0.04 in1.0 mm
07:54 AM 58.6°F14.8°C 28.1°F-2.2°C 38% 3.0 mph S4.8 kmh S 7.0 mph11.3 kmh 29.93 in1013.5 mb 0.00 in0.0 mm 0.00 in0.0 mm 0.04 in1.0 mm
07:52 AM 58.6°F14.8°C 28.1°F-2.2°C 38% Calm Calm 7.0 mph11.3 kmh 29.93 in1013.5 mb 0.00 in0.0 mm 0.00 in0.0 mm 0.04 in1.0 mm
07:50 AM 58.6°F14.8°C 28.1°F-2.2°C 38% 2.0 mph WSW3.2 kmh WSW 7.0 mph11.3 kmh 29.94 in1013.9 mb 0.00 in0.0 mm 0.00 in0.0 mm 0.04 in1.0 mm
07:48 AM 58.5°F14.7°C 28.0°F-2.2°C 38% Calm Calm 7.0 mph11.3 kmh 29.94 in1013.9 mb 0.00 in0.0 mm 0.00 in0.0 mm 0.04 in1.0 mm
07:46 AM 58.5°F14.7°C 28.0°F-2.2°C 38% 2.0 mph WSW3.2 kmh WSW 7.0 mph11.3 kmh 29.94 in1013.9 mb 0.00 in0.0 mm 0.00 in0.0 mm 0.04 in1.0 mm
07:44 AM 58.5°F14.7°C 28.0°F-2.2°C 38% 2.0 mph SSW3.2 kmh SSW 7.0 mph11.3 kmh 29.94 in1013.9 mb 0.00 in0.0 mm 0.00 in0.0 mm 0.04 in1.0 mm
07:42 AM 58.4°F14.7°C 27.9°F-2.3°C 38% Calm Calm 5.0 mph8.0 kmh 29.94 in1013.9 mb 0.00 in0.0 mm 0.00 in0.0 mm 0.04 in1.0 mm
07:40 AM 58.4°F14.7°C 27.9°F-2.3°C 38% 2.0 mph SW3.2 kmh SW 5.0 mph8.0 kmh 29.94 in1013.9 mb 0.00 in0.0 mm 0.00 in0.0 mm 0.04 in1.0 mm
07:38 AM 58.4°F14.7°C 27.9°F-2.3°C 38% Calm Calm 4.0 mph6.4 kmh 29.94 in1013.9 mb 0.00 in0.0 mm 0.00 in0.0 mm 0.04 in1.0 mm
07:36 AM 58.4°F14.7°C 27.9°F-2.3°C 38% 1.0 mph WNW1.6 kmh WNW 4.0 mph6.4 kmh 29.94 in1013.9 mb 0.00 in0.0 mm 0.00 in0.0 mm 0.04 in1.0 mm
07:34 AM 58.4°F14.7°C 27.9°F-2.3°C 38% Calm Calm 4.0 mph6.4 kmh 29.95 in1014.2 mb 0.00 in0.0 mm 0.00 in0.0 mm 0.04 in1.0 mm
07:32 AM 58.4°F14.7°C 27.9°F-2.3°C 38% Calm Calm 4.0 mph6.4 kmh 29.95 in1014.2 mb 0.00 in0.0 mm 0.00 in0.0 mm 0.04 in1.0 mm
07:30 AM 58.3°F14.6°C 27.8°F-2.3°C 38% Calm Calm 5.0 mph8.0 kmh 29.95 in1014.2 mb 0.00 in0.0 mm 0.00 in0.0 mm 0.04 in1.0 mm
07:28 AM 58.3°F14.6°C 27.8°F-2.3°C 38% 4.0 mph SSW6.4 kmh SSW 4.0 mph6.4 kmh 29.95 in1014.2 mb 0.00 in0.0 mm 0.00 in0.0 mm 0.04 in1.0 mm
07:26 AM 58.2°F14.6°C 27.7°F-2.4°C 38% Calm Calm -- 29.95 in1014.2 mb 0.00 in0.0 mm 0.00 in0.0 mm 0.04 in1.0 mm
07:24 AM 58.2°F14.6°C 27.7°F-2.4°C 38% Calm Calm -- 29.95 in1014.2 mb 0.00 in0.0 mm 0.00 in0.0 mm 0.04 in1.0 mm
07:22 AM 58.2°F14.6°C 27.7°F-2.4°C 38% Calm Calm 7.0 mph11.3 kmh 29.95 in1014.2 mb 0.00 in0.0 mm 0.00 in0.0 mm 0.04 in1.0 mm
07:20 AM 58.2°F14.6°C 27.7°F-2.4°C 38% Calm Calm 7.0 mph11.3 kmh 29.95 in1014.2 mb 0.00 in0.0 mm 0.00 in0.0 mm 0.04 in1.0 mm
07:18 AM 58.2°F14.6°C 27.7°F-2.4°C 38% 1.0 mph SSW1.6 kmh SSW 7.0 mph11.3 kmh 29.94 in1013.9 mb 0.00 in0.0 mm 0.00 in0.0 mm 0.04 in1.0 mm
07:16 AM 58.1°F14.5°C 27.6°F-2.4°C 38% 1.0 mph S1.6 kmh S 7.0 mph11.3 kmh 29.95 in1014.2 mb 0.00 in0.0 mm 0.00 in0.0 mm 0.04 in1.0 mm
07:14 AM 58.1°F14.5°C 27.6°F-2.4°C 38% Calm Calm 7.0 mph11.3 kmh 29.95 in1014.2 mb 0.00 in0.0 mm 0.00 in0.0 mm 0.04 in1.0 mm
07:12 AM 58.1°F14.5°C 27.6°F-2.4°C 38% 2.0 mph W3.2 kmh W 7.0 mph11.3 kmh 29.95 in1014.2 mb 0.00 in0.0 mm 0.00 in0.0 mm 0.04 in1.0 mm
07:10 AM 58.1°F14.5°C 27.6°F-2.4°C 38% Calm Calm 7.0 mph11.3 kmh 29.95 in1014.2 mb 0.00 in0.0 mm 0.00 in0.0 mm 0.04 in1.0 mm
07:08 AM 58.1°F14.5°C 27.6°F-2.4°C 38% 1.0 mph SE1.6 kmh SE 7.0 mph11.3 kmh 29.95 in1014.2 mb 0.00 in0.0 mm 0.00 in0.0 mm 0.04 in1.0 mm
07:06 AM 58.0°F14.4°C 27.5°F-2.5°C 38% 4.0 mph SW6.4 kmh SW 7.0 mph11.3 kmh 29.95 in1014.2 mb 0.00 in0.0 mm 0.00 in0.0 mm 0.04 in1.0 mm
07:04 AM 58.0°F14.4°C 27.5°F-2.5°C 38% 3.0 mph WSW4.8 kmh WSW 7.0 mph11.3 kmh 29.95 in1014.2 mb 0.00 in0.0 mm 0.00 in0.0 mm 0.04 in1.0 mm
07:02 AM 58.0°F14.4°C 27.5°F-2.5°C 38% 5.0 mph SW8.0 kmh SW 7.0 mph11.3 kmh 29.95 in1014.2 mb 0.00 in0.0 mm 0.00 in0.0 mm 0.04 in1.0 mm
07:00 AM 58.0°F14.4°C 27.5°F-2.5°C 38% Calm Calm 7.0 mph11.3 kmh 29.95 in1014.2 mb 0.00 in0.0 mm 0.00 in0.0 mm 0.04 in1.0 mm
06:58 AM 58.0°F14.4°C 27.5°F-2.5°C 38% Calm Calm 7.0 mph11.3 kmh 29.95 in1014.2 mb 0.00 in0.0 mm 0.00 in0.0 mm 0.04 in1.0 mm
06:56 AM 58.0°F14.4°C 27.5°F-2.5°C 38% Calm Calm 7.0 mph11.3 kmh 29.94 in1013.9 mb 0.00 in0.0 mm 0.00 in0.0 mm 0.04 in1.0 mm
06:54 AM 57.9°F14.4°C 27.5°F-2.5°C 38% Calm Calm 7.0 mph11.3 kmh 29.94 in1013.9 mb 0.00 in0.0 mm 0.00 in0.0 mm 0.04 in1.0 mm
06:52 AM 57.9°F14.4°C 27.5°F-2.5°C 38% 2.0 mph W3.2 kmh W 7.0 mph11.3 kmh 29.94 in1013.9 mb 0.00 in0.0 mm 0.00 in0.0 mm 0.04 in1.0 mm
06:50 AM 57.9°F14.4°C 27.5°F-2.5°C 38% 1.0 mph WSW1.6 kmh WSW 7.0 mph11.3 kmh 29.94 in1013.9 mb 0.00 in0.0 mm 0.00 in0.0 mm 0.04 in1.0 mm
06:48 AM 57.8°F14.3°C 27.4°F-2.6°C 38% 1.0 mph WSW1.6 kmh WSW 7.0 mph11.3 kmh 29.95 in1014.2 mb 0.00 in0.0 mm 0.00 in0.0 mm 0.04 in1.0 mm
06:46 AM 57.8°F14.3°C 27.4°F-2.6°C 38% 4.0 mph SW6.4 kmh SW 7.0 mph11.3 kmh 29.94 in1013.9 mb 0.00 in0.0 mm 0.00 in0.0 mm 0.04 in1.0 mm
06:44 AM 57.7°F14.3°C 27.3°F-2.6°C 38% Calm Calm 2.0 mph3.2 kmh 29.94 in1013.9 mb 0.00 in0.0 mm 0.00 in0.0 mm 0.04 in1.0 mm
06:42 AM 57.8°F14.3°C 27.4°F-2.6°C 38% Calm Calm -- 29.94 in1013.9 mb 0.00 in0.0 mm 0.00 in0.0 mm 0.04 in1.0 mm
06:40 AM 57.7°F14.3°C 27.3°F-2.6°C 38% 1.0 mph SW1.6 kmh SW 2.0 mph3.2 kmh 29.95 in1014.2 mb 0.00 in0.0 mm 0.00 in0.0 mm 0.04 in1.0 mm
06:38 AM 57.7°F14.3°C 27.3°F-2.6°C 38% Calm Calm 1.0 mph1.6 kmh 29.95 in1014.2 mb 0.00 in0.0 mm 0.00 in0.0 mm 0.04 in1.0 mm
06:36 AM 57.8°F14.3°C 27.4°F-2.6°C 38% Calm Calm 7.0 mph11.3 kmh 29.95 in1014.2 mb 0.00 in0.0 mm 0.00 in0.0 mm 0.04 in1.0 mm
06:34 AM 57.8°F14.3°C 27.4°F-2.6°C 38% Calm Calm 7.0 mph11.3 kmh 29.94 in1013.9 mb 0.00 in0.0 mm 0.00 in0.0 mm 0.04 in1.0 mm
06:32 AM 57.7°F14.3°C 27.3°F-2.6°C 38% 5.0 mph SSW8.0 kmh SSW 7.0 mph11.3 kmh 29.95 in1014.2 mb 0.00 in0.0 mm 0.00 in0.0 mm 0.04 in1.0 mm
06:30 AM 57.7°F14.3°C 27.3°F-2.6°C 38% 2.0 mph WSW3.2 kmh WSW 7.0 mph11.3 kmh 29.95 in1014.2 mb 0.00 in0.0 mm 0.00 in0.0 mm 0.04 in1.0 mm
06:28 AM 57.7°F14.3°C 27.3°F-2.6°C 38% Calm Calm 7.0 mph11.3 kmh 29.95 in1014.2 mb 0.00 in0.0 mm 0.00 in0.0 mm 0.04 in1.0 mm
06:26 AM 57.6°F14.2°C 27.2°F-2.7°C 38% 1.0 mph NW1.6 kmh NW 7.0 mph11.3 kmh 29.94 in1013.9 mb 0.00 in0.0 mm 0.00 in0.0 mm 0.04 in1.0 mm
06:24 AM 57.6°F14.2°C 27.2°F-2.7°C 38% Calm Calm 7.0 mph11.3 kmh 29.94 in1013.9 mb 0.00 in0.0 mm 0.00 in0.0 mm 0.04 in1.0 mm
06:22 AM 57.5°F14.2°C 27.1°F-2.7°C 38% 2.0 mph WSW3.2 kmh WSW 7.0 mph11.3 kmh 29.94 in1013.9 mb 0.00 in0.0 mm 0.00 in0.0 mm 0.04 in1.0 mm
06:20 AM 57.5°F14.2°C 27.1°F-2.7°C 38% 3.0 mph WSW4.8 kmh WSW 7.0 mph11.3 kmh 29.94 in1013.9 mb 0.00 in0.0 mm 0.00 in0.0 mm 0.04 in1.0 mm
06:18 AM 57.4°F14.1°C 27.0°F-2.8°C 38% 2.0 mph W3.2 kmh W 4.0 mph6.4 kmh 29.95 in1014.2 mb 0.00 in0.0 mm 0.00 in0.0 mm 0.04 in1.0 mm
06:16 AM 57.4°F14.1°C 27.0°F-2.8°C 38% Calm Calm 3.0 mph4.8 kmh 29.95 in1014.2 mb 0.00 in0.0 mm 0.00 in0.0 mm 0.04 in1.0 mm
06:14 AM 57.3°F14.1°C 26.9°F-2.8°C 38% Calm Calm 3.0 mph4.8 kmh 29.95 in1014.2 mb 0.00 in0.0 mm 0.00 in0.0 mm 0.03 in0.8 mm
06:12 AM 57.2°F14.0°C 26.8°F-2.9°C 38% 1.0 mph WSW1.6 kmh WSW 3.0 mph4.8 kmh 29.94 in1013.9 mb 0.00 in0.0 mm 0.00 in0.0 mm 0.03 in0.8 mm
06:10 AM 57.2°F14.0°C 26.8°F-2.9°C 38% Calm Calm -- 29.94 in1013.9 mb 0.00 in0.0 mm 0.00 in0.0 mm 0.03 in0.8 mm
06:08 AM 57.2°F14.0°C 26.8°F-2.9°C 38% Calm Calm 2.0 mph3.2 kmh 29.94 in1013.9 mb 0.00 in0.0 mm 0.00 in0.0 mm 0.03 in0.8 mm
06:06 AM 57.2°F14.0°C 26.8°F-2.9°C 38% 1.0 mph W1.6 kmh W 1.0 mph1.6 kmh 29.94 in1013.9 mb 0.00 in0.0 mm 0.00 in0.0 mm 0.03 in0.8 mm
06:04 AM 57.2°F14.0°C 26.8°F-2.9°C 38% Calm Calm 7.0 mph11.3 kmh 29.94 in1013.9 mb 0.00 in0.0 mm 0.00 in0.0 mm 0.03 in0.8 mm
06:02 AM 57.1°F13.9°C 26.8°F-2.9°C 38% Calm Calm 7.0 mph11.3 kmh 29.94 in1013.9 mb 0.00 in0.0 mm 0.00 in0.0 mm 0.03 in0.8 mm
06:00 AM 57.1°F13.9°C 26.8°F-2.9°C 38% 2.0 mph SW3.2 kmh SW 7.0 mph11.3 kmh 29.94 in1013.9 mb 0.00 in0.0 mm 0.00 in0.0 mm 0.03 in0.8 mm
05:58 AM 57.1°F13.9°C 26.8°F-2.9°C 38% Calm Calm 7.0 mph11.3 kmh 29.94 in1013.9 mb 0.00 in0.0 mm 0.00 in0.0 mm 0.03 in0.8 mm
05:56 AM 57.1°F13.9°C 26.8°F-2.9°C 38% Calm Calm 7.0 mph11.3 kmh 29.94 in1013.9 mb 0.00 in0.0 mm 0.00 in0.0 mm 0.03 in0.8 mm
05:54 AM 57.0°F13.9°C 26.7°F-2.9°C 38% 3.0 mph W4.8 kmh W 7.0 mph11.3 kmh 29.94 in1013.9 mb 0.00 in0.0 mm 0.00 in0.0 mm 0.03 in0.8 mm
05:52 AM 57.0°F13.9°C 26.7°F-2.9°C 38% 1.0 mph WSW1.6 kmh WSW 7.0 mph11.3 kmh 29.95 in1014.2 mb 0.00 in0.0 mm 0.00 in0.0 mm 0.03 in0.8 mm
05:50 AM 56.9°F13.8°C 26.6°F-3.0°C 38% 1.0 mph W1.6 kmh W 7.0 mph11.3 kmh 29.95 in1014.2 mb 0.00 in0.0 mm 0.00 in0.0 mm 0.03 in0.8 mm
05:48 AM 56.9°F13.8°C 26.6°F-3.0°C 38% 1.0 mph SW1.6 kmh SW 1.0 mph1.6 kmh 29.95 in1014.2 mb 0.00 in0.0 mm 0.00 in0.0 mm 0.03 in0.8 mm
05:46 AM 56.9°F13.8°C 26.6°F-3.0°C 38% Calm Calm 4.0 mph6.4 kmh 29.95 in1014.2 mb 0.00 in0.0 mm 0.00 in0.0 mm 0.03 in0.8 mm
05:44 AM 56.8°F13.8°C 26.5°F-3.1°C 38% Calm Calm 4.0 mph6.4 kmh 29.95 in1014.2 mb 0.00 in0.0 mm 0.00 in0.0 mm 0.03 in0.8 mm
05:42 AM 56.8°F13.8°C 26.5°F-3.1°C 38% 2.0 mph WSW3.2 kmh WSW 4.0 mph6.4 kmh 29.94 in1013.9 mb 0.00 in0.0 mm 0.00 in0.0 mm 0.03 in0.8 mm
05:40 AM 56.8°F13.8°C 26.5°F-3.1°C 38% 2.0 mph SW3.2 kmh SW 3.0 mph4.8 kmh 29.94 in1013.9 mb 0.00 in0.0 mm 0.00 in0.0 mm 0.03 in0.8 mm
05:38 AM 56.8°F13.8°C 26.5°F-3.1°C 38% Calm Calm 3.0 mph4.8 kmh 29.93 in1013.5 mb 0.00 in0.0 mm 0.00 in0.0 mm 0.03 in0.8 mm
05:36 AM 56.8°F13.8°C 26.5°F-3.1°C 38% Calm Calm 4.0 mph6.4 kmh 29.93 in1013.5 mb 0.00 in0.0 mm 0.00 in0.0 mm 0.03 in0.8 mm
05:34 AM 56.8°F13.8°C 26.5°F-3.1°C 38% Calm Calm 4.0 mph6.4 kmh 29.93 in1013.5 mb 0.00 in0.0 mm 0.00 in0.0 mm 0.03 in0.8 mm
05:32 AM 56.7°F13.7°C 26.4°F-3.1°C 38% Calm Calm 1.0 mph1.6 kmh 29.93 in1013.5 mb 0.00 in0.0 mm 0.00 in0.0 mm 0.03 in0.8 mm
05:30 AM 56.7°F13.7°C 26.4°F-3.1°C 38% Calm Calm 6.0 mph9.7 kmh 29.93 in1013.5 mb 0.00 in0.0 mm 0.00 in0.0 mm 0.03 in0.8 mm
05:28 AM 56.7°F13.7°C 26.4°F-3.1°C 38% Calm Calm 6.0 mph9.7 kmh 29.93 in1013.5 mb 0.00 in0.0 mm 0.00 in0.0 mm 0.03 in0.8 mm
05:26 AM 56.7°F13.7°C 26.4°F-3.1°C 38% 1.0 mph W1.6 kmh W 6.0 mph9.7 kmh 29.93 in1013.5 mb 0.00 in0.0 mm 0.00 in0.0 mm 0.03 in0.8 mm
05:24 AM 56.7°F13.7°C 26.4°F-3.1°C 38% Calm Calm 6.0 mph9.7 kmh 29.93 in1013.5 mb 0.00 in0.0 mm 0.00 in0.0 mm 0.03 in0.8 mm
05:22 AM 56.6°F13.7°C 26.3°F-3.2°C 38% Calm Calm 4.0 mph6.4 kmh 29.93 in1013.5 mb 0.00 in0.0 mm 0.00 in0.0 mm 0.03 in0.8 mm
05:20 AM 56.6°F13.7°C 26.3°F-3.2°C 38% 1.0 mph W1.6 kmh W 4.0 mph6.4 kmh 29.93 in1013.5 mb 0.00 in0.0 mm 0.00 in0.0 mm 0.03 in0.8 mm
05:18 AM 56.6°F13.7°C 26.3°F-3.2°C 38% Calm Calm 4.0 mph6.4 kmh 29.93 in1013.5 mb 0.00 in0.0 mm 0.00 in0.0 mm 0.03 in0.8 mm
05:16 AM 56.6°F13.7°C 26.3°F-3.2°C 38% 3.0 mph S4.8 kmh S 4.0 mph6.4 kmh 29.93 in1013.5 mb 0.00 in0.0 mm 0.00 in0.0 mm 0.03 in0.8 mm
05:14 AM 56.5°F13.6°C 26.2°F-3.2°C 38% Calm Calm 8.0 mph12.9 kmh 29.93 in1013.5 mb 0.00 in0.0 mm 0.00 in0.0 mm 0.03 in0.8 mm
05:12 AM 56.5°F13.6°C 26.2°F-3.2°C 38% Calm Calm 8.0 mph12.9 kmh 29.93 in1013.5 mb 0.00 in0.0 mm 0.00 in0.0 mm 0.03 in0.8 mm
05:10 AM 56.5°F13.6°C 26.2°F-3.2°C 38% Calm Calm 8.0 mph12.9 kmh 29.93 in1013.5 mb 0.00 in0.0 mm 0.00 in0.0 mm 0.03 in0.8 mm
05:08 AM 56.5°F13.6°C 26.2°F-3.2°C 38% 1.0 mph W1.6 kmh W 8.0 mph12.9 kmh 29.93 in1013.5 mb 0.00 in0.0 mm 0.00 in0.0 mm 0.03 in0.8 mm
05:06 AM 56.5°F13.6°C 26.2°F-3.2°C 38% 1.0 mph W1.6 kmh W 8.0 mph12.9 kmh 29.93 in1013.5 mb 0.00 in0.0 mm 0.00 in0.0 mm 0.03 in0.8 mm
05:04 AM 56.5°F13.6°C 26.2°F-3.2°C 38% 4.0 mph NW6.4 kmh NW 8.0 mph12.9 kmh 29.93 in1013.5 mb 0.00 in0.0 mm 0.00 in0.0 mm 0.03 in0.8 mm
05:02 AM 56.4°F13.6°C 26.1°F-3.3°C 38% 1.0 mph WSW1.6 kmh WSW 8.0 mph12.9 kmh 29.93 in1013.5 mb 0.00 in0.0 mm 0.00 in0.0 mm 0.03 in0.8 mm
05:00 AM 56.4°F13.6°C 26.1°F-3.3°C 38% Calm Calm 5.0 mph8.0 kmh 29.93 in1013.5 mb 0.00 in0.0 mm 0.00 in0.0 mm 0.03 in0.8 mm
04:58 AM 56.4°F13.6°C 26.1°F-3.3°C 38% Calm Calm 5.0 mph8.0 kmh 29.93 in1013.5 mb 0.00 in0.0 mm 0.00 in0.0 mm 0.03 in0.8 mm
04:56 AM 56.4°F13.6°C 26.1°F-3.3°C 38% Calm Calm 5.0 mph8.0 kmh 29.94 in1013.9 mb 0.00 in0.0 mm 0.00 in0.0 mm 0.03 in0.8 mm
04:54 AM 56.4°F13.6°C 26.1°F-3.3°C 38% Calm Calm 5.0 mph8.0 kmh 29.93 in1013.5 mb 0.00 in0.0 mm 0.00 in0.0 mm 0.03 in0.8 mm
04:52 AM 56.4°F13.6°C 26.1°F-3.3°C 38% Calm Calm 5.0 mph8.0 kmh 29.93 in1013.5 mb 0.00 in0.0 mm 0.00 in0.0 mm 0.03 in0.8 mm
04:50 AM 56.4°F13.6°C 26.1°F-3.3°C 38% 1.0 mph WSW1.6 kmh WSW 4.0 mph6.4 kmh 29.93 in1013.5 mb 0.00 in0.0 mm 0.00 in0.0 mm 0.03 in0.8 mm
04:48 AM 56.3°F13.5°C 26.1°F-3.3°C 38% Calm Calm 3.0 mph4.8 kmh 29.93 in1013.5 mb 0.00 in0.0 mm 0.00 in0.0 mm 0.03 in0.8 mm
04:46 AM 56.3°F13.5°C 26.1°F-3.3°C 38% 2.0 mph WSW3.2 kmh WSW 3.0 mph4.8 kmh 29.93 in1013.5 mb 0.00 in0.0 mm 0.00 in0.0 mm 0.03 in0.8 mm
04:44 AM 56.3°F13.5°C 26.1°F-3.3°C 38% Calm Calm 3.0 mph4.8 kmh 29.93 in1013.5 mb 0.00 in0.0 mm 0.00 in0.0 mm 0.03 in0.8 mm
04:42 AM 56.3°F13.5°C 26.1°F-3.3°C 38% Calm Calm 3.0 mph4.8 kmh 29.93 in1013.5 mb 0.00 in0.0 mm 0.00 in0.0 mm 0.03 in0.8 mm
04:40 AM 56.3°F13.5°C 26.1°F-3.3°C 38% 2.0 mph WNW3.2 kmh WNW 2.0 mph3.2 kmh 29.93 in1013.5 mb 0.00 in0.0 mm 0.00 in0.0 mm 0.03 in0.8 mm
04:38 AM 56.3°F13.5°C 26.1°F-3.3°C 38% Calm Calm 6.0 mph9.7 kmh 29.93 in1013.5 mb 0.00 in0.0 mm 0.00 in0.0 mm 0.03 in0.8 mm
04:36 AM 56.2°F13.4°C 26.0°F-3.3°C 38% Calm Calm 6.0 mph9.7 kmh 29.93 in1013.5 mb 0.00 in0.0 mm 0.00 in0.0 mm 0.03 in0.8 mm
04:34 AM 56.2°F13.4°C 26.0°F-3.3°C 38% Calm Calm 4.0 mph6.4 kmh 29.93 in1013.5 mb 0.00 in0.0 mm 0.00 in0.0 mm 0.03 in0.8 mm
04:32 AM 56.2°F13.4°C 26.0°F-3.3°C 38% 2.0 mph SW3.2 kmh SW 4.0 mph6.4 kmh 29.94 in1013.9 mb 0.00 in0.0 mm 0.00 in0.0 mm 0.03 in0.8 mm
04:30 AM 56.2°F13.4°C 26.0°F-3.3°C 38% 2.0 mph WNW3.2 kmh WNW 4.0 mph6.4 kmh 29.93 in1013.5 mb 0.00 in0.0 mm 0.00 in0.0 mm 0.03 in0.8 mm
04:28 AM 56.1°F13.4°C 25.9°F-3.4°C 38% Calm Calm 4.0 mph6.4 kmh 29.93 in1013.5 mb 0.00 in0.0 mm 0.00 in0.0 mm 0.03 in0.8 mm
04:26 AM 56.1°F13.4°C 25.9°F-3.4°C 38% Calm Calm 4.0 mph6.4 kmh 29.94 in1013.9 mb 0.00 in0.0 mm 0.00 in0.0 mm 0.03 in0.8 mm
04:24 AM 56.1°F13.4°C 25.9°F-3.4°C 38% Calm Calm -- 29.94 in1013.9 mb 0.00 in0.0 mm 0.00 in0.0 mm 0.03 in0.8 mm
04:22 AM 56.1°F13.4°C 25.9°F-3.4°C 38% Calm Calm -- 29.94 in1013.9 mb 0.00 in0.0 mm 0.00 in0.0 mm 0.03 in0.8 mm
04:20 AM 56.0°F13.3°C 25.8°F-3.4°C 38% Calm Calm 6.0 mph9.7 kmh 29.94 in1013.9 mb 0.00 in0.0 mm 0.00 in0.0 mm 0.03 in0.8 mm
04:18 AM 56.0°F13.3°C 25.8°F-3.4°C 38% 1.0 mph WSW1.6 kmh WSW 6.0 mph9.7 kmh 29.95 in1014.2 mb 0.00 in0.0 mm 0.00 in0.0 mm 0.03 in0.8 mm
04:16 AM 55.9°F13.3°C 25.7°F-3.5°C 38% 3.0 mph WNW4.8 kmh WNW 4.0 mph6.4 kmh 29.95 in1014.2 mb 0.00 in0.0 mm 0.00 in0.0 mm 0.03 in0.8 mm
04:14 AM 55.9°F13.3°C 25.7°F-3.5°C 38% Calm Calm 4.0 mph6.4 kmh 29.95 in1014.2 mb 0.00 in0.0 mm 0.00 in0.0 mm 0.03 in0.8 mm
04:12 AM 55.9°F13.3°C 25.7°F-3.5°C 38% Calm Calm 6.0 mph9.7 kmh 29.95 in1014.2 mb 0.00 in0.0 mm 0.00 in0.0 mm 0.03 in0.8 mm
04:10 AM 55.8°F13.2°C 25.6°F-3.6°C 38% 1.0 mph SW1.6 kmh SW 6.0 mph9.7 kmh 29.95 in1014.2 mb 0.00 in0.0 mm 0.00 in0.0 mm 0.03 in0.8 mm
04:08 AM 55.8°F13.2°C 25.6°F-3.6°C 38% Calm Calm 6.0 mph9.7 kmh 29.95 in1014.2 mb 0.00 in0.0 mm 0.00 in0.0 mm 0.03 in0.8 mm
04:06 AM 55.7°F13.2°C 25.5°F-3.6°C 38% Calm Calm 6.0 mph9.7 kmh 29.95 in1014.2 mb 0.00 in0.0 mm 0.00 in0.0 mm 0.03 in0.8 mm
04:04 AM 55.6°F13.1°C 25.5°F-3.6°C 38% 1.0 mph WSW1.6 kmh WSW 4.0 mph6.4 kmh 29.95 in1014.2 mb 0.00 in0.0 mm 0.00 in0.0 mm 0.03 in0.8 mm
04:02 AM 55.5°F13.1°C 25.4°F-3.7°C 38% 4.0 mph WSW6.4 kmh WSW 4.0 mph6.4 kmh 29.95 in1014.2 mb 0.00 in0.0 mm 0.00 in0.0 mm 0.03 in0.8 mm
04:00 AM 55.5°F13.1°C 25.4°F-3.7°C 38% Calm Calm 5.0 mph8.0 kmh 29.95 in1014.2 mb 0.00 in0.0 mm 0.00 in0.0 mm 0.03 in0.8 mm
03:58 AM 55.4°F13.0°C 25.3°F-3.7°C 38% Calm Calm 5.0 mph8.0 kmh 29.95 in1014.2 mb 0.00 in0.0 mm 0.00 in0.0 mm 0.03 in0.8 mm
03:56 AM 55.4°F13.0°C 25.3°F-3.7°C 38% 1.0 mph SSW1.6 kmh SSW 5.0 mph8.0 kmh 29.95 in1014.2 mb 0.00 in0.0 mm 0.00 in0.0 mm 0.03 in0.8 mm
03:54 AM 55.3°F12.9°C 25.2°F-3.8°C 38% 1.0 mph W1.6 kmh W 5.0 mph8.0 kmh 29.95 in1014.2 mb 0.00 in0.0 mm 0.00 in0.0 mm 0.03 in0.8 mm
03:52 AM 55.3°F12.9°C 25.2°F-3.8°C 38% Calm Calm 4.0 mph6.4 kmh 29.95 in1014.2 mb 0.00 in0.0 mm 0.00 in0.0 mm 0.03 in0.8 mm
03:50 AM 55.2°F12.9°C 25.1°F-3.8°C 38% 3.0 mph S4.8 kmh S 4.0 mph6.4 kmh 29.95 in1014.2 mb 0.00 in0.0 mm 0.00 in0.0 mm 0.03 in0.8 mm
03:48 AM 55.2°F12.9°C 25.1°F-3.8°C 38% Calm Calm 2.0 mph3.2 kmh 29.95 in1014.2 mb 0.00 in0.0 mm 0.00 in0.0 mm 0.03 in0.8 mm
03:46 AM 55.1°F12.8°C 25.0°F-3.9°C 38% 1.0 mph WSW1.6 kmh WSW 2.0 mph3.2 kmh 29.95 in1014.2 mb 0.00 in0.0 mm 0.00 in0.0 mm 0.03 in0.8 mm
03:44 AM 55.1°F12.8°C 25.0°F-3.9°C 38% 2.0 mph NW3.2 kmh NW 2.0 mph3.2 kmh 29.95 in1014.2 mb 0.00 in0.0 mm 0.00 in0.0 mm 0.03 in0.8 mm
03:42 AM 55.0°F12.8°C 24.9°F-3.9°C 38% Calm Calm 1.0 mph1.6 kmh 29.94 in1013.9 mb 0.00 in0.0 mm 0.00 in0.0 mm 0.03 in0.8 mm
03:40 AM 54.9°F12.7°C 24.8°F-4.0°C 38% 1.0 mph W1.6 kmh W 2.0 mph3.2 kmh 29.95 in1014.2 mb 0.00 in0.0 mm 0.00 in0.0 mm 0.03 in0.8 mm
03:38 AM 54.9°F12.7°C 24.8°F-4.0°C 38% Calm Calm -- 29.95 in1014.2 mb 0.00 in0.0 mm 0.00 in0.0 mm 0.03 in0.8 mm
03:36 AM 54.8°F12.7°C 24.8°F-4.0°C 38% Calm Calm 4.0 mph6.4 kmh 29.95 in1014.2 mb 0.00 in0.0 mm 0.00 in0.0 mm 0.03 in0.8 mm
03:34 AM 54.8°F12.7°C 24.8°F-4.0°C 38% 3.0 mph S4.8 kmh S 3.0 mph4.8 kmh 29.95 in1014.2 mb 0.00 in0.0 mm 0.00 in0.0 mm 0.03 in0.8 mm
03:32 AM 54.7°F12.6°C 24.7°F-4.1°C 38% Calm Calm 3.0 mph4.8 kmh 29.95 in1014.2 mb 0.00 in0.0 mm 0.00 in0.0 mm 0.03 in0.8 mm
03:30 AM 54.7°F12.6°C 24.7°F-4.1°C 38% Calm Calm 2.0 mph3.2 kmh 29.95 in1014.2 mb 0.00 in0.0 mm 0.00 in0.0 mm 0.03 in0.8 mm
03:28 AM 54.6°F12.6°C 24.6°F-4.1°C 38% Calm Calm -- 29.95 in1014.2 mb 0.00 in0.0 mm 0.00 in0.0 mm 0.03 in0.8 mm
03:26 AM 54.5°F12.5°C 24.5°F-4.2°C 38% Calm Calm 1.0 mph1.6 kmh 29.95 in1014.2 mb 0.00 in0.0 mm 0.00 in0.0 mm 0.03 in0.8 mm
03:24 AM 54.4°F12.4°C 24.4°F-4.2°C 38% Calm Calm 1.0 mph1.6 kmh 29.95 in1014.2 mb 0.00 in0.0 mm 0.00 in0.0 mm 0.03 in0.8 mm
03:22 AM 54.4°F12.4°C 24.4°F-4.2°C 38% Calm Calm -- 29.96 in1014.6 mb 0.00 in0.0 mm 0.00 in0.0 mm 0.03 in0.8 mm
03:20 AM 54.4°F12.4°C 24.4°F-4.2°C 38% Calm Calm 3.0 mph4.8 kmh 29.96 in1014.6 mb 0.00 in0.0 mm 0.00 in0.0 mm 0.03 in0.8 mm
03:18 AM 54.3°F12.4°C 24.3°F-4.3°C 38% Calm Calm 3.0 mph4.8 kmh 29.96 in1014.6 mb 0.00 in0.0 mm 0.00 in0.0 mm 0.03 in0.8 mm
03:16 AM 54.3°F12.4°C 24.3°F-4.3°C 38% Calm Calm 3.0 mph4.8 kmh 29.96 in1014.6 mb 0.00 in0.0 mm 0.00 in0.0 mm 0.03 in0.8 mm
03:14 AM 54.2°F12.3°C 24.2°F-4.3°C 38% Calm Calm -- 29.96 in1014.6 mb 0.00 in0.0 mm 0.00 in0.0 mm 0.03 in0.8 mm
03:12 AM 54.2°F12.3°C 24.2°F-4.3°C 38% Calm Calm -- 29.96 in1014.6 mb 0.00 in0.0 mm 0.00 in0.0 mm 0.03 in0.8 mm
03:10 AM 54.2°F12.3°C 24.2°F-4.3°C 38% 2.0 mph W3.2 kmh W 2.0 mph3.2 kmh 29.96 in1014.6 mb 0.00 in0.0 mm 0.00 in0.0 mm 0.03 in0.8 mm
03:08 AM 54.2°F12.3°C 24.2°F-4.3°C 38% Calm Calm 5.0 mph8.0 kmh 29.96 in1014.6 mb 0.00 in0.0 mm 0.00 in0.0 mm 0.03 in0.8 mm
03:06 AM 54.1°F12.3°C 24.1°F-4.4°C 38% 1.0 mph WSW1.6 kmh WSW 5.0 mph8.0 kmh 29.96 in1014.6 mb 0.00 in0.0 mm 0.00 in0.0 mm 0.03 in0.8 mm
03:04 AM 54.0°F12.2°C 24.1°F-4.4°C 38% 5.0 mph SW8.0 kmh SW 5.0 mph8.0 kmh 29.96 in1014.6 mb 0.00 in0.0 mm 0.00 in0.0 mm 0.03 in0.8 mm
03:02 AM 54.0°F12.2°C 24.1°F-4.4°C 38% Calm Calm 1.0 mph1.6 kmh 29.96 in1014.6 mb 0.00 in0.0 mm 0.00 in0.0 mm 0.03 in0.8 mm
03:00 AM 53.9°F12.2°C 24.0°F-4.4°C 38% Calm Calm 1.0 mph1.6 kmh 29.96 in1014.6 mb 0.00 in0.0 mm 0.00 in0.0 mm 0.03 in0.8 mm
02:58 AM 53.9°F12.2°C 24.0°F-4.4°C 38% 1.0 mph S1.6 kmh S 1.0 mph1.6 kmh 29.96 in1014.6 mb 0.00 in0.0 mm 0.00 in0.0 mm 0.03 in0.8 mm
02:56 AM 53.8°F12.1°C 23.9°F-4.5°C 38% Calm Calm 1.0 mph1.6 kmh 29.96 in1014.6 mb 0.00 in0.0 mm 0.00 in0.0 mm 0.03 in0.8 mm
02:54 AM 53.8°F12.1°C 23.9°F-4.5°C 38% 1.0 mph WSW1.6 kmh WSW 1.0 mph1.6 kmh 29.96 in1014.6 mb 0.00 in0.0 mm 0.00 in0.0 mm 0.03 in0.8 mm
02:52 AM 53.7°F12.1°C 23.8°F-4.6°C 38% Calm Calm 2.0 mph3.2 kmh 29.96 in1014.6 mb 0.00 in0.0 mm 0.00 in0.0 mm 0.03 in0.8 mm
02:50 AM 53.7°F12.1°C 23.8°F-4.6°C 38% Calm Calm 2.0 mph3.2 kmh 29.97 in1014.9 mb 0.00 in0.0 mm 0.00 in0.0 mm 0.03 in0.8 mm
02:48 AM 53.6°F12.0°C 23.7°F-4.6°C 38% Calm Calm 1.0 mph1.6 kmh 29.97 in1014.9 mb 0.00 in0.0 mm 0.00 in0.0 mm 0.03 in0.8 mm
02:46 AM 53.6°F12.0°C 23.7°F-4.6°C 38% Calm Calm -- 29.97 in1014.9 mb 0.00 in0.0 mm 0.00 in0.0 mm 0.03 in0.8 mm
02:44 AM 53.6°F12.0°C 23.7°F-4.6°C 38% Calm Calm -- 29.97 in1014.9 mb 0.00 in0.0 mm 0.00 in0.0 mm 0.03 in0.8 mm
02:42 AM 53.6°F12.0°C 23.7°F-4.6°C 38% Calm Calm -- 29.97 in1014.9 mb 0.00 in0.0 mm 0.00 in0.0 mm 0.03 in0.8 mm
02:40 AM 53.5°F11.9°C 23.6°F-4.7°C 38% Calm Calm -- 29.97 in1014.9 mb 0.00 in0.0 mm 0.00 in0.0 mm 0.03 in0.8 mm
02:38 AM 53.5°F11.9°C 23.6°F-4.7°C 38% Calm Calm 2.0 mph3.2 kmh 29.98 in1015.2 mb 0.00 in0.0 mm 0.00 in0.0 mm 0.03 in0.8 mm
02:36 AM 53.5°F11.9°C 23.6°F-4.7°C 38% Calm Calm 2.0 mph3.2 kmh 29.98 in1015.2 mb 0.00 in0.0 mm 0.00 in0.0 mm 0.03 in0.8 mm
02:34 AM 53.4°F11.9°C 23.5°F-4.7°C 38% Calm Calm -- 29.98 in1015.2 mb 0.00 in0.0 mm 0.00 in0.0 mm 0.03 in0.8 mm
02:32 AM 53.4°F11.9°C 23.5°F-4.7°C 38% Calm Calm -- 29.98 in1015.2 mb 0.00 in0.0 mm 0.00 in0.0 mm 0.03 in0.8 mm
02:30 AM 53.4°F11.9°C 23.5°F-4.7°C 38% Calm Calm -- 29.98 in1015.2 mb 0.00 in0.0 mm 0.00 in0.0 mm 0.03 in0.8 mm
02:28 AM 53.4°F11.9°C 23.5°F-4.7°C 38% Calm Calm -- 29.98 in1015.2 mb 0.00 in0.0 mm 0.00 in0.0 mm 0.03 in0.8 mm
02:26 AM 53.3°F11.8°C 23.4°F-4.8°C 38% Calm Calm -- 29.98 in1015.2 mb 0.00 in0.0 mm 0.00 in0.0 mm 0.03 in0.8 mm
02:24 AM 53.3°F11.8°C 23.4°F-4.8°C 38% Calm Calm 1.0 mph1.6 kmh 29.98 in1015.2 mb 0.00 in0.0 mm 0.00 in0.0 mm 0.03 in0.8 mm
02:22 AM 53.3°F11.8°C 23.4°F-4.8°C 38% Calm Calm -- 29.98 in1015.2 mb 0.00 in0.0 mm 0.00 in0.0 mm 0.03 in0.8 mm
02:20 AM 53.2°F11.8°C 23.4°F-4.8°C 38% Calm Calm -- 29.97 in1014.9 mb 0.00 in0.0 mm 0.00 in0.0 mm 0.03 in0.8 mm
02:18 AM 53.2°F11.8°C 23.4°F-4.8°C 38% Calm Calm -- 29.97 in1014.9 mb 0.00 in0.0 mm 0.00 in0.0 mm 0.03 in0.8 mm
02:16 AM 53.2°F11.8°C 23.4°F-4.8°C 38% Calm Calm -- 29.98 in1015.2 mb 0.00 in0.0 mm 0.00 in0.0 mm 0.03 in0.8 mm
02:14 AM 53.1°F11.7°C 23.3°F-4.8°C 38% Calm Calm -- 29.98 in1015.2 mb 0.00 in0.0 mm 0.00 in0.0 mm 0.03 in0.8 mm
02:12 AM 53.1°F11.7°C 23.3°F-4.8°C 38% Calm Calm -- 29.98 in1015.2 mb 0.00 in0.0 mm 0.00 in0.0 mm 0.03 in0.8 mm
02:10 AM 53.1°F11.7°C 23.3°F-4.8°C 38% Calm Calm -- 29.98 in1015.2 mb 0.00 in0.0 mm 0.00 in0.0 mm 0.03 in0.8 mm
02:08 AM 53.1°F11.7°C 23.3°F-4.8°C 38% Calm Calm -- 29.98 in1015.2 mb 0.00 in0.0 mm 0.00 in0.0 mm 0.03 in0.8 mm
02:06 AM 53.1°F11.7°C 23.3°F-4.8°C 38% Calm Calm 1.0 mph1.6 kmh 29.98 in1015.2 mb 0.00 in0.0 mm 0.00 in0.0 mm 0.03 in0.8 mm
02:04 AM 53.0°F11.7°C 23.2°F-4.9°C 38% Calm Calm -- 29.98 in1015.2 mb 0.00 in0.0 mm 0.00 in0.0 mm 0.03 in0.8 mm
02:02 AM 53.0°F11.7°C 23.2°F-4.9°C 38% Calm Calm -- 29.98 in1015.2 mb 0.00 in0.0 mm 0.00 in0.0 mm 0.03 in0.8 mm
02:00 AM 53.0°F11.7°C 23.2°F-4.9°C 38% Calm Calm -- 29.98 in1015.2 mb 0.00 in0.0 mm 0.00 in0.0 mm 0.03 in0.8 mm
01:58 AM 52.9°F11.6°C 23.1°F-4.9°C 38% Calm Calm -- 29.97 in1014.9 mb 0.00 in0.0 mm 0.00 in0.0 mm 0.03 in0.8 mm
01:56 AM 52.9°F11.6°C 23.1°F-4.9°C 38% Calm Calm -- 29.97 in1014.9 mb 0.00 in0.0 mm 0.00 in0.0 mm 0.03 in0.8 mm
01:54 AM 52.8°F11.6°C 23.0°F-5.0°C 38% Calm Calm -- 29.97 in1014.9 mb 0.00 in0.0 mm 0.00 in0.0 mm 0.03 in0.8 mm
01:52 AM 52.8°F11.6°C 23.0°F-5.0°C 38% Calm Calm -- 29.97 in1014.9 mb 0.00 in0.0 mm 0.00 in0.0 mm 0.03 in0.8 mm
01:50 AM 52.8°F11.6°C 23.0°F-5.0°C 38% Calm Calm -- 29.97 in1014.9 mb 0.00 in0.0 mm 0.00 in0.0 mm 0.03 in0.8 mm
01:48 AM 52.8°F11.6°C 23.0°F-5.0°C 38% Calm Calm -- 29.97 in1014.9 mb 0.00 in0.0 mm 0.00 in0.0 mm 0.03 in0.8 mm
01:46 AM 52.7°F11.5°C 22.9°F-5.1°C 38% Calm Calm -- 29.97 in1014.9 mb 0.00 in0.0 mm 0.00 in0.0 mm 0.03 in0.8 mm
01:44 AM 52.7°F11.5°C 22.9°F-5.1°C 38% Calm Calm -- 29.97 in1014.9 mb 0.00 in0.0 mm 0.00 in0.0 mm 0.03 in0.8 mm
01:42 AM 52.7°F11.5°C 22.9°F-5.1°C 38% Calm Calm -- 29.97 in1014.9 mb 0.00 in0.0 mm 0.00 in0.0 mm 0.03 in0.8 mm
01:40 AM 52.7°F11.5°C 22.9°F-5.1°C 38% Calm Calm -- 29.98 in1015.2 mb 0.00 in0.0 mm 0.00 in0.0 mm 0.03 in0.8 mm
01:38 AM 52.7°F11.5°C 22.9°F-5.1°C 38% Calm Calm -- 29.98 in1015.2 mb 0.00 in0.0 mm 0.00 in0.0 mm 0.03 in0.8 mm
01:36 AM 52.6°F11.4°C 22.8°F-5.1°C 38% Calm Calm -- 29.98 in1015.2 mb 0.00 in0.0 mm 0.00 in0.0 mm 0.03 in0.8 mm
01:34 AM 52.6°F11.4°C 22.8°F-5.1°C 38% Calm Calm -- 29.98 in1015.2 mb 0.00 in0.0 mm 0.00 in0.0 mm 0.03 in0.8 mm
01:32 AM 52.6°F11.4°C 22.8°F-5.1°C 38% Calm Calm -- 29.98 in1015.2 mb 0.00 in0.0 mm 0.00 in0.0 mm 0.03 in0.8 mm
01:30 AM 52.5°F11.4°C 22.8°F-5.1°C 38% Calm Calm 1.0 mph1.6 kmh 29.98 in1015.2 mb 0.00 in0.0 mm 0.00 in0.0 mm 0.03 in0.8 mm
01:28 AM 52.5°F11.4°C 22.8°F-5.1°C 38% Calm Calm -- 29.98 in1015.2 mb 0.00 in0.0 mm 0.00 in0.0 mm 0.03 in0.8 mm
01:26 AM 52.5°F11.4°C 22.8°F-5.1°C 38% Calm Calm -- 29.99 in1015.6 mb 0.00 in0.0 mm 0.00 in0.0 mm 0.03 in0.8 mm
01:24 AM 52.5°F11.4°C 22.8°F-5.1°C 38% Calm Calm -- 29.99 in1015.6 mb 0.00 in0.0 mm 0.00 in0.0 mm 0.03 in0.8 mm
01:22 AM 52.5°F11.4°C 22.8°F-5.1°C 38% Calm Calm -- 29.99 in1015.6 mb 0.00 in0.0 mm 0.00 in0.0 mm 0.03 in0.8 mm
01:20 AM 52.4°F11.3°C 22.7°F-5.2°C 38% Calm Calm -- 29.99 in1015.6 mb 0.00 in0.0 mm 0.00 in0.0 mm 0.03 in0.8 mm
01:18 AM 52.4°F11.3°C 22.7°F-5.2°C 38% Calm Calm -- 29.99 in1015.6 mb 0.00 in0.0 mm 0.00 in0.0 mm 0.03 in0.8 mm
01:16 AM 52.4°F11.3°C 22.7°F-5.2°C 38% Calm Calm 1.0 mph1.6 kmh 29.99 in1015.6 mb 0.00 in0.0 mm 0.00 in0.0 mm 0.03 in0.8 mm
01:14 AM 52.4°F11.3°C 22.7°F-5.2°C 38% Calm Calm -- 29.99 in1015.6 mb 0.00 in0.0 mm 0.00 in0.0 mm 0.03 in0.8 mm
01:12 AM 52.4°F11.3°C 22.7°F-5.2°C 38% Calm Calm -- 29.99 in1015.6 mb 0.00 in0.0 mm 0.00 in0.0 mm 0.03 in0.8 mm
01:10 AM 52.3°F11.3°C 22.6°F-5.2°C 38% Calm Calm -- 29.99 in1015.6 mb 0.00 in0.0 mm 0.00 in0.0 mm 0.03 in0.8 mm
01:08 AM 52.3°F11.3°C 22.6°F-5.2°C 38% Calm Calm -- 29.99 in1015.6 mb 0.00 in0.0 mm 0.00 in0.0 mm 0.03 in0.8 mm
01:06 AM 52.3°F11.3°C 22.6°F-5.2°C 38% Calm Calm -- 29.99 in1015.6 mb 0.00 in0.0 mm 0.00 in0.0 mm 0.03 in0.8 mm
01:04 AM 52.3°F11.3°C 22.6°F-5.2°C 38% Calm Calm -- 29.99 in1015.6 mb 0.00 in0.0 mm 0.00 in0.0 mm 0.03 in0.8 mm
01:02 AM 52.3°F11.3°C 22.6°F-5.2°C 38% Calm Calm -- 29.99 in1015.6 mb 0.00 in0.0 mm 0.00 in0.0 mm 0.03 in0.8 mm
01:00 AM 52.3°F11.3°C 22.6°F-5.2°C 38% Calm Calm -- 29.99 in1015.6 mb 0.00 in0.0 mm 0.00 in0.0 mm 0.03 in0.8 mm
12:58 AM 52.3°F11.3°C 22.6°F-5.2°C 38% Calm Calm -- 29.99 in1015.6 mb 0.00 in0.0 mm 0.00 in0.0 mm 0.03 in0.8 mm
12:56 AM 52.3°F11.3°C 22.6°F-5.2°C 38% Calm Calm 1.0 mph1.6 kmh 29.99 in1015.6 mb 0.00 in0.0 mm 0.00 in0.0 mm 0.00 in0.0 mm
12:54 AM 52.3°F11.3°C 22.6°F-5.2°C 38% Calm Calm -- 29.99 in1015.6 mb 0.00 in0.0 mm 0.00 in0.0 mm 0.00 in0.0 mm
12:52 AM 52.2°F11.2°C 22.5°F-5.3°C 38% Calm Calm -- 29.99 in1015.6 mb 0.00 in0.0 mm 0.00 in0.0 mm 0.00 in0.0 mm
12:50 AM 52.2°F11.2°C 22.5°F-5.3°C 38% Calm Calm 1.0 mph1.6 kmh 29.99 in1015.6 mb 0.00 in0.0 mm 0.00 in0.0 mm 0.00 in0.0 mm
12:48 AM 52.2°F11.2°C 22.5°F-5.3°C 38% Calm Calm 1.0 mph1.6 kmh 29.99 in1015.6 mb 0.00 in0.0 mm 0.00 in0.0 mm 0.00 in0.0 mm
12:46 AM 52.2°F11.2°C 22.5°F-5.3°C 38% Calm Calm -- 30.00 in1015.9 mb 0.00 in0.0 mm 0.00 in0.0 mm 0.00 in0.0 mm
12:44 AM 52.2°F11.2°C 22.5°F-5.3°C 38% 1.0 mph SSW1.6 kmh SSW 1.0 mph1.6 kmh 30.00 in1015.9 mb 0.00 in0.0 mm 0.00 in0.0 mm 0.00 in0.0 mm
12:42 AM 52.2°F11.2°C 22.5°F-5.3°C 38% Calm Calm -- 30.00 in1015.9 mb 0.00 in0.0 mm 0.00 in0.0 mm 0.00 in0.0 mm
12:40 AM 52.2°F11.2°C 22.5°F-5.3°C 38% Calm Calm -- 30.00 in1015.9 mb 0.00 in0.0 mm 0.00 in0.0 mm 0.00 in0.0 mm
12:38 AM 52.1°F11.2°C 22.4°F-5.3°C 38% Calm Calm 3.0 mph4.8 kmh 30.00 in1015.9 mb 0.00 in0.0 mm 0.00 in0.0 mm 0.00 in0.0 mm
12:36 AM 52.1°F11.2°C 22.4°F-5.3°C 38% Calm Calm -- 30.00 in1015.9 mb 0.00 in0.0 mm 0.00 in0.0 mm 0.00 in0.0 mm
12:34 AM 52.1°F11.2°C 22.4°F-5.3°C 38% Calm Calm -- 30.00 in1015.9 mb 0.00 in0.0 mm 0.00 in0.0 mm 0.00 in0.0 mm
12:32 AM 52.1°F11.2°C 22.4°F-5.3°C 38% Calm Calm 1.0 mph1.6 kmh 30.00 in1015.9 mb 0.00 in0.0 mm 0.00 in0.0 mm 0.00 in0.0 mm
12:30 AM 52.0°F11.1°C 22.3°F-5.4°C 38% Calm Calm 1.0 mph1.6 kmh 30.00 in1015.9 mb 0.00 in0.0 mm 0.00 in0.0 mm 0.00 in0.0 mm
12:28 AM 52.0°F11.1°C 22.3°F-5.4°C 38% Calm Calm 1.0 mph1.6 kmh 30.00 in1015.9 mb 0.00 in0.0 mm 0.00 in0.0 mm 0.00 in0.0 mm
12:26 AM 52.0°F11.1°C 22.3°F-5.4°C 38% Calm Calm -- 30.00 in1015.9 mb 0.00 in0.0 mm 0.00 in0.0 mm 0.00 in0.0 mm
12:24 AM 51.9°F11.1°C 22.2°F-5.4°C 38% Calm Calm -- 30.00 in1015.9 mb 0.00 in0.0 mm 0.00 in0.0 mm 0.00 in0.0 mm
12:22 AM 51.9°F11.1°C 22.2°F-5.4°C 38% Calm Calm -- 30.01 in1016.3 mb 0.00 in0.0 mm 0.00 in0.0 mm 0.00 in0.0 mm
12:20 AM 51.9°F11.1°C 22.2°F-5.4°C 38% Calm Calm -- 30.01 in1016.3 mb 0.00 in0.0 mm 0.00 in0.0 mm 0.00 in0.0 mm
12:18 AM 51.9°F11.1°C 22.2°F-5.4°C 38% Calm Calm -- 30.01 in1016.3 mb 0.00 in0.0 mm 0.00 in0.0 mm 0.00 in0.0 mm
12:16 AM 51.9°F11.1°C 22.2°F-5.4°C 38% Calm Calm 2.0 mph3.2 kmh 30.01 in1016.3 mb 0.00 in0.0 mm 0.00 in0.0 mm 0.00 in0.0 mm
12:14 AM 51.8°F11.0°C 22.1°F-5.5°C 38% Calm Calm 2.0 mph3.2 kmh 30.01 in1016.3 mb 0.00 in0.0 mm 0.00 in0.0 mm 0.00 in0.0 mm
12:12 AM 51.8°F11.0°C 22.1°F-5.5°C 38% Calm Calm -- 30.01 in1016.3 mb 0.00 in0.0 mm 0.00 in0.0 mm 0.00 in0.0 mm
12:10 AM 51.8°F11.0°C 22.1°F-5.5°C 38% Calm Calm -- 30.01 in1016.3 mb 0.00 in0.0 mm 0.00 in0.0 mm 0.00 in0.0 mm
12:08 AM 51.8°F11.0°C 22.1°F-5.5°C 38% Calm Calm 1.0 mph1.6 kmh 30.01 in1016.3 mb 0.00 in0.0 mm 0.00 in0.0 mm 0.00 in0.0 mm
12:06 AM 51.8°F11.0°C 22.1°F-5.5°C 38% Calm Calm -- 30.01 in1016.3 mb 0.00 in0.0 mm 0.00 in0.0 mm 0.00 in0.0 mm
12:04 AM 51.7°F10.9°C 22.1°F-5.5°C 38% 1.0 mph SW1.6 kmh SW 1.0 mph1.6 kmh 30.01 in1016.3 mb 0.00 in0.0 mm 0.00 in0.0 mm 0.00 in0.0 mm
12:02 AM 51.7°F10.9°C 22.1°F-5.5°C 38% Calm Calm 2.0 mph3.2 kmh 30.01 in1016.3 mb 0.00 in0.0 mm 0.00 in0.0 mm 0.00 in0.0 mm
12:00 AM 51.7°F10.9°C 22.1°F-5.5°C 38% 1.0 mph SW1.6 kmh SW 2.0 mph3.2 kmh 30.01 in1016.3 mb 0.00 in0.0 mm 0.00 in0.0 mm 0.00 in0.0 mm